<?xml version="1.0" encoding="UTF-8" standalone="no" ?>
<gpx xmlns="http://www.topografix.com/GPX/1/1" xmlns:xsi="http://www.w3.org/2001/XMLSchema-instance" xsi:schemaLocation="http://www.topografix.com/GPX/1/1 http://www.topografix.com/GPX/1/1/gpx.xsd" version="1.1" creator="VisuGPX - https://www.visugpx.com">
  <metadata>
    <name>Les Beaumettes, Goult et Saint Pantaléon</name>
    <desc><![CDATA[Boucle au départ des Beaumettes et passant par Goult et Saint Pantaleon.]]></desc>
  </metadata>
  <trk>
    <name><![CDATA[2019-05-27 15-12-07]]></name>
    <trkseg>
      <trkpt lat="43.85893" lon="5.20039">
        <ele>135.2</ele>
        <time>2019-05-27T07:24:50Z</time>
      </trkpt>
      <trkpt lat="43.85893" lon="5.20039">
        <ele>135.2</ele>
        <time>2019-05-27T07:24:51Z</time>
      </trkpt>
      <trkpt lat="43.85894" lon="5.20036">
        <ele>134.24</ele>
        <time>2019-05-27T07:25:31Z</time>
      </trkpt>
      <trkpt lat="43.85898" lon="5.20033">
        <ele>134.24</ele>
        <time>2019-05-27T07:25:45Z</time>
      </trkpt>
      <trkpt lat="43.85896" lon="5.20032">
        <ele>134.24</ele>
        <time>2019-05-27T07:26:05Z</time>
      </trkpt>
      <trkpt lat="43.85897" lon="5.20032">
        <ele>134.24</ele>
        <time>2019-05-27T07:26:38Z</time>
      </trkpt>
      <trkpt lat="43.85899" lon="5.20032">
        <ele>134.24</ele>
        <time>2019-05-27T07:27:24Z</time>
      </trkpt>
      <trkpt lat="43.85897" lon="5.20033">
        <ele>134.72</ele>
        <time>2019-05-27T07:28:18Z</time>
      </trkpt>
      <trkpt lat="43.85899" lon="5.20033">
        <ele>134.72</ele>
        <time>2019-05-27T07:29:48Z</time>
      </trkpt>
      <trkpt lat="43.859" lon="5.20033">
        <ele>134.72</ele>
        <time>2019-05-27T07:30:36Z</time>
      </trkpt>
      <trkpt lat="43.859" lon="5.2003">
        <ele>134.72</ele>
        <time>2019-05-27T07:31:15Z</time>
      </trkpt>
      <trkpt lat="43.85899" lon="5.20031">
        <ele>134.72</ele>
        <time>2019-05-27T07:31:50Z</time>
      </trkpt>
      <trkpt lat="43.85899" lon="5.20032">
        <ele>134.72</ele>
        <time>2019-05-27T07:33:08Z</time>
      </trkpt>
      <trkpt lat="43.85897" lon="5.20035">
        <ele>134.72</ele>
        <time>2019-05-27T07:33:38Z</time>
      </trkpt>
      <trkpt lat="43.85897" lon="5.20035">
        <ele>134.72</ele>
        <time>2019-05-27T07:34:14Z</time>
      </trkpt>
      <trkpt lat="43.85897" lon="5.20031">
        <ele>134.72</ele>
        <time>2019-05-27T07:34:48Z</time>
      </trkpt>
      <trkpt lat="43.85896" lon="5.20033">
        <ele>134.72</ele>
        <time>2019-05-27T07:35:26Z</time>
      </trkpt>
      <trkpt lat="43.85895" lon="5.20034">
        <ele>134.72</ele>
        <time>2019-05-27T07:35:51Z</time>
      </trkpt>
      <trkpt lat="43.85895" lon="5.20034">
        <ele>134.72</ele>
        <time>2019-05-27T07:36:16Z</time>
      </trkpt>
      <trkpt lat="43.85894" lon="5.20029">
        <ele>134.72</ele>
        <time>2019-05-27T07:36:48Z</time>
      </trkpt>
      <trkpt lat="43.85893" lon="5.2003">
        <ele>134.72</ele>
        <time>2019-05-27T07:37:17Z</time>
      </trkpt>
      <trkpt lat="43.85895" lon="5.20033">
        <ele>134.72</ele>
        <time>2019-05-27T07:37:50Z</time>
      </trkpt>
      <trkpt lat="43.85895" lon="5.20033">
        <ele>134.72</ele>
        <time>2019-05-27T07:38:21Z</time>
      </trkpt>
      <trkpt lat="43.85896" lon="5.20033">
        <ele>134.72</ele>
        <time>2019-05-27T07:38:55Z</time>
      </trkpt>
      <trkpt lat="43.85898" lon="5.20032">
        <ele>134.72</ele>
        <time>2019-05-27T07:39:26Z</time>
      </trkpt>
      <trkpt lat="43.85896" lon="5.20034">
        <ele>134.72</ele>
        <time>2019-05-27T07:39:58Z</time>
      </trkpt>
      <trkpt lat="43.85893" lon="5.20037">
        <ele>134.72</ele>
        <time>2019-05-27T07:40:26Z</time>
      </trkpt>
      <trkpt lat="43.85891" lon="5.20039">
        <ele>134.72</ele>
        <time>2019-05-27T07:40:58Z</time>
      </trkpt>
      <trkpt lat="43.85894" lon="5.2004">
        <ele>134.72</ele>
        <time>2019-05-27T07:41:33Z</time>
      </trkpt>
      <trkpt lat="43.85895" lon="5.20036">
        <ele>134.72</ele>
        <time>2019-05-27T07:42:02Z</time>
      </trkpt>
      <trkpt lat="43.85894" lon="5.20033">
        <ele>134.72</ele>
        <time>2019-05-27T07:42:27Z</time>
      </trkpt>
      <trkpt lat="43.85896" lon="5.2003">
        <ele>134.72</ele>
        <time>2019-05-27T07:42:53Z</time>
      </trkpt>
      <trkpt lat="43.85898" lon="5.20022">
        <ele>134.72</ele>
        <time>2019-05-27T07:43:18Z</time>
      </trkpt>
      <trkpt lat="43.85903" lon="5.20003">
        <ele>135.2</ele>
        <time>2019-05-27T07:43:36Z</time>
      </trkpt>
      <trkpt lat="43.8591" lon="5.19985">
        <ele>135.2</ele>
        <time>2019-05-27T07:43:53Z</time>
      </trkpt>
      <trkpt lat="43.85924" lon="5.19964">
        <ele>135.2</ele>
        <time>2019-05-27T07:44:16Z</time>
      </trkpt>
      <trkpt lat="43.85933" lon="5.19969">
        <ele>135.2</ele>
        <time>2019-05-27T07:44:26Z</time>
      </trkpt>
      <trkpt lat="43.85942" lon="5.19977">
        <ele>135.68</ele>
        <time>2019-05-27T07:44:43Z</time>
      </trkpt>
      <trkpt lat="43.85951" lon="5.19993">
        <ele>135.68</ele>
        <time>2019-05-27T07:45:05Z</time>
      </trkpt>
      <trkpt lat="43.85965" lon="5.20002">
        <ele>135.68</ele>
        <time>2019-05-27T07:45:25Z</time>
      </trkpt>
      <trkpt lat="43.85976" lon="5.20007">
        <ele>136.16</ele>
        <time>2019-05-27T07:45:44Z</time>
      </trkpt>
      <trkpt lat="43.8599" lon="5.20018">
        <ele>137.13</ele>
        <time>2019-05-27T07:46:09Z</time>
      </trkpt>
      <trkpt lat="43.85993" lon="5.20022">
        <ele>137.13</ele>
        <time>2019-05-27T07:46:30Z</time>
      </trkpt>
      <trkpt lat="43.85993" lon="5.20021">
        <ele>136.64</ele>
        <time>2019-05-27T07:46:53Z</time>
      </trkpt>
      <trkpt lat="43.86004" lon="5.20029">
        <ele>137.61</ele>
        <time>2019-05-27T07:47:16Z</time>
      </trkpt>
      <trkpt lat="43.86017" lon="5.20044">
        <ele>138.09</ele>
        <time>2019-05-27T07:47:34Z</time>
      </trkpt>
      <trkpt lat="43.86022" lon="5.20059">
        <ele>140.01</ele>
        <time>2019-05-27T07:47:54Z</time>
      </trkpt>
      <trkpt lat="43.86023" lon="5.20059">
        <ele>140.01</ele>
        <time>2019-05-27T07:47:55Z</time>
      </trkpt>
      <trkpt lat="43.86032" lon="5.20074">
        <ele>140.49</ele>
        <time>2019-05-27T07:48:16Z</time>
      </trkpt>
      <trkpt lat="43.86054" lon="5.20093">
        <ele>142.41</ele>
        <time>2019-05-27T07:48:44Z</time>
      </trkpt>
      <trkpt lat="43.86065" lon="5.20099">
        <ele>142.41</ele>
        <time>2019-05-27T07:48:55Z</time>
      </trkpt>
      <trkpt lat="43.86069" lon="5.20104">
        <ele>143.37</ele>
        <time>2019-05-27T07:49:08Z</time>
      </trkpt>
      <trkpt lat="43.86062" lon="5.20116">
        <ele>146.26</ele>
        <time>2019-05-27T07:49:29Z</time>
      </trkpt>
      <trkpt lat="43.8606" lon="5.20128">
        <ele>148.18</ele>
        <time>2019-05-27T07:49:44Z</time>
      </trkpt>
      <trkpt lat="43.86045" lon="5.20143">
        <ele>151.54</ele>
        <time>2019-05-27T07:50:05Z</time>
      </trkpt>
      <trkpt lat="43.86039" lon="5.20158">
        <ele>154.43</ele>
        <time>2019-05-27T07:50:25Z</time>
      </trkpt>
      <trkpt lat="43.8603" lon="5.20167">
        <ele>157.79</ele>
        <time>2019-05-27T07:50:45Z</time>
      </trkpt>
      <trkpt lat="43.86027" lon="5.20177">
        <ele>160.68</ele>
        <time>2019-05-27T07:51:00Z</time>
      </trkpt>
      <trkpt lat="43.86026" lon="5.20197">
        <ele>163.56</ele>
        <time>2019-05-27T07:51:16Z</time>
      </trkpt>
      <trkpt lat="43.86018" lon="5.20213">
        <ele>166.45</ele>
        <time>2019-05-27T07:51:38Z</time>
      </trkpt>
      <trkpt lat="43.86007" lon="5.20237">
        <ele>169.33</ele>
        <time>2019-05-27T07:51:58Z</time>
      </trkpt>
      <trkpt lat="43.86002" lon="5.20252">
        <ele>171.25</ele>
        <time>2019-05-27T07:52:14Z</time>
      </trkpt>
      <trkpt lat="43.85991" lon="5.20283">
        <ele>173.66</ele>
        <time>2019-05-27T07:52:36Z</time>
      </trkpt>
      <trkpt lat="43.85981" lon="5.20314">
        <ele>176.06</ele>
        <time>2019-05-27T07:53:00Z</time>
      </trkpt>
      <trkpt lat="43.85981" lon="5.20342">
        <ele>177.98</ele>
        <time>2019-05-27T07:53:23Z</time>
      </trkpt>
      <trkpt lat="43.85985" lon="5.20359">
        <ele>179.9</ele>
        <time>2019-05-27T07:53:40Z</time>
      </trkpt>
      <trkpt lat="43.85985" lon="5.20385">
        <ele>181.83</ele>
        <time>2019-05-27T07:54:05Z</time>
      </trkpt>
      <trkpt lat="43.85982" lon="5.20395">
        <ele>181.83</ele>
        <time>2019-05-27T07:54:23Z</time>
      </trkpt>
      <trkpt lat="43.8598" lon="5.20399">
        <ele>182.31</ele>
        <time>2019-05-27T07:54:49Z</time>
      </trkpt>
      <trkpt lat="43.8598" lon="5.20403">
        <ele>182.79</ele>
        <time>2019-05-27T07:55:19Z</time>
      </trkpt>
      <trkpt lat="43.85982" lon="5.20403">
        <ele>182.31</ele>
        <time>2019-05-27T07:55:49Z</time>
      </trkpt>
      <trkpt lat="43.85981" lon="5.20406">
        <ele>182.31</ele>
        <time>2019-05-27T07:56:13Z</time>
      </trkpt>
      <trkpt lat="43.85981" lon="5.20417">
        <ele>182.31</ele>
        <time>2019-05-27T07:56:39Z</time>
      </trkpt>
      <trkpt lat="43.85982" lon="5.20435">
        <ele>184.23</ele>
        <time>2019-05-27T07:56:54Z</time>
      </trkpt>
      <trkpt lat="43.85987" lon="5.20458">
        <ele>186.15</ele>
        <time>2019-05-27T07:57:12Z</time>
      </trkpt>
      <trkpt lat="43.8599" lon="5.20493">
        <ele>188.08</ele>
        <time>2019-05-27T07:57:35Z</time>
      </trkpt>
      <trkpt lat="43.85993" lon="5.20511">
        <ele>189.04</ele>
        <time>2019-05-27T07:57:48Z</time>
      </trkpt>
      <trkpt lat="43.85994" lon="5.20545">
        <ele>189.52</ele>
        <time>2019-05-27T07:58:08Z</time>
      </trkpt>
      <trkpt lat="43.86003" lon="5.20558">
        <ele>190.96</ele>
        <time>2019-05-27T07:58:23Z</time>
      </trkpt>
      <trkpt lat="43.86016" lon="5.20568">
        <ele>191.44</ele>
        <time>2019-05-27T07:58:35Z</time>
      </trkpt>
      <trkpt lat="43.86032" lon="5.20589">
        <ele>191.92</ele>
        <time>2019-05-27T07:58:56Z</time>
      </trkpt>
      <trkpt lat="43.86039" lon="5.20596">
        <ele>192.4</ele>
        <time>2019-05-27T07:59:09Z</time>
      </trkpt>
      <trkpt lat="43.86047" lon="5.20603">
        <ele>192.4</ele>
        <time>2019-05-27T07:59:17Z</time>
      </trkpt>
      <trkpt lat="43.86056" lon="5.2061">
        <ele>192.4</ele>
        <time>2019-05-27T07:59:28Z</time>
      </trkpt>
      <trkpt lat="43.8606" lon="5.20614">
        <ele>192.4</ele>
        <time>2019-05-27T07:59:32Z</time>
      </trkpt>
      <trkpt lat="43.86061" lon="5.20617">
        <ele>192.4</ele>
        <time>2019-05-27T07:59:34Z</time>
      </trkpt>
      <trkpt lat="43.86072" lon="5.20645">
        <ele>191.92</ele>
        <time>2019-05-27T07:59:53Z</time>
      </trkpt>
      <trkpt lat="43.86073" lon="5.20648">
        <ele>191.92</ele>
        <time>2019-05-27T07:59:55Z</time>
      </trkpt>
      <trkpt lat="43.86087" lon="5.20666">
        <ele>191.44</ele>
        <time>2019-05-27T08:00:11Z</time>
      </trkpt>
      <trkpt lat="43.86098" lon="5.20684">
        <ele>191.44</ele>
        <time>2019-05-27T08:00:25Z</time>
      </trkpt>
      <trkpt lat="43.8611" lon="5.20705">
        <ele>191.44</ele>
        <time>2019-05-27T08:00:41Z</time>
      </trkpt>
      <trkpt lat="43.86121" lon="5.20729">
        <ele>190.96</ele>
        <time>2019-05-27T08:00:57Z</time>
      </trkpt>
      <trkpt lat="43.86124" lon="5.20738">
        <ele>190.96</ele>
        <time>2019-05-27T08:01:17Z</time>
      </trkpt>
      <trkpt lat="43.8613" lon="5.20746">
        <ele>190.96</ele>
        <time>2019-05-27T08:01:37Z</time>
      </trkpt>
      <trkpt lat="43.8614" lon="5.20758">
        <ele>191.44</ele>
        <time>2019-05-27T08:01:50Z</time>
      </trkpt>
      <trkpt lat="43.86149" lon="5.20779">
        <ele>193.36</ele>
        <time>2019-05-27T08:02:09Z</time>
      </trkpt>
      <trkpt lat="43.86156" lon="5.20787">
        <ele>193.36</ele>
        <time>2019-05-27T08:02:16Z</time>
      </trkpt>
      <trkpt lat="43.86167" lon="5.20798">
        <ele>194.8</ele>
        <time>2019-05-27T08:02:33Z</time>
      </trkpt>
      <trkpt lat="43.86168" lon="5.20804">
        <ele>193.84</ele>
        <time>2019-05-27T08:02:56Z</time>
      </trkpt>
      <trkpt lat="43.86174" lon="5.20806">
        <ele>193.84</ele>
        <time>2019-05-27T08:03:39Z</time>
      </trkpt>
      <trkpt lat="43.86174" lon="5.20802">
        <ele>193.84</ele>
        <time>2019-05-27T08:04:20Z</time>
      </trkpt>
      <trkpt lat="43.86173" lon="5.20799">
        <ele>194.32</ele>
        <time>2019-05-27T08:04:50Z</time>
      </trkpt>
      <trkpt lat="43.86175" lon="5.20797">
        <ele>194.32</ele>
        <time>2019-05-27T08:05:18Z</time>
      </trkpt>
      <trkpt lat="43.86174" lon="5.20798">
        <ele>194.32</ele>
        <time>2019-05-27T08:05:51Z</time>
      </trkpt>
      <trkpt lat="43.86178" lon="5.20803">
        <ele>194.32</ele>
        <time>2019-05-27T08:06:18Z</time>
      </trkpt>
      <trkpt lat="43.8619" lon="5.20815">
        <ele>193.84</ele>
        <time>2019-05-27T08:06:36Z</time>
      </trkpt>
      <trkpt lat="43.86208" lon="5.20817">
        <ele>194.32</ele>
        <time>2019-05-27T08:06:50Z</time>
      </trkpt>
      <trkpt lat="43.86224" lon="5.20816">
        <ele>195.28</ele>
        <time>2019-05-27T08:07:03Z</time>
      </trkpt>
      <trkpt lat="43.86229" lon="5.20817">
        <ele>195.28</ele>
        <time>2019-05-27T08:07:07Z</time>
      </trkpt>
      <trkpt lat="43.86246" lon="5.20822">
        <ele>196.25</ele>
        <time>2019-05-27T08:07:24Z</time>
      </trkpt>
      <trkpt lat="43.8626" lon="5.20828">
        <ele>196.73</ele>
        <time>2019-05-27T08:07:36Z</time>
      </trkpt>
      <trkpt lat="43.86268" lon="5.20825">
        <ele>197.21</ele>
        <time>2019-05-27T08:07:43Z</time>
      </trkpt>
      <trkpt lat="43.86281" lon="5.20804">
        <ele>197.21</ele>
        <time>2019-05-27T08:07:57Z</time>
      </trkpt>
      <trkpt lat="43.86297" lon="5.20781">
        <ele>196.73</ele>
        <time>2019-05-27T08:08:17Z</time>
      </trkpt>
      <trkpt lat="43.86294" lon="5.20789">
        <ele>196.73</ele>
        <time>2019-05-27T08:08:28Z</time>
      </trkpt>
      <trkpt lat="43.86295" lon="5.208">
        <ele>197.21</ele>
        <time>2019-05-27T08:08:35Z</time>
      </trkpt>
      <trkpt lat="43.86308" lon="5.20817">
        <ele>198.17</ele>
        <time>2019-05-27T08:08:53Z</time>
      </trkpt>
      <trkpt lat="43.86313" lon="5.20818">
        <ele>198.17</ele>
        <time>2019-05-27T08:08:56Z</time>
      </trkpt>
      <trkpt lat="43.86326" lon="5.20838">
        <ele>199.13</ele>
        <time>2019-05-27T08:09:13Z</time>
      </trkpt>
      <trkpt lat="43.86342" lon="5.20854">
        <ele>200.09</ele>
        <time>2019-05-27T08:09:28Z</time>
      </trkpt>
      <trkpt lat="43.86349" lon="5.20864">
        <ele>200.57</ele>
        <time>2019-05-27T08:09:37Z</time>
      </trkpt>
      <trkpt lat="43.86352" lon="5.20866">
        <ele>200.57</ele>
        <time>2019-05-27T08:09:40Z</time>
      </trkpt>
      <trkpt lat="43.86354" lon="5.20868">
        <ele>200.57</ele>
        <time>2019-05-27T08:09:42Z</time>
      </trkpt>
      <trkpt lat="43.86367" lon="5.20882">
        <ele>201.53</ele>
        <time>2019-05-27T08:09:56Z</time>
      </trkpt>
      <trkpt lat="43.8637" lon="5.20884">
        <ele>201.53</ele>
        <time>2019-05-27T08:09:59Z</time>
      </trkpt>
      <trkpt lat="43.86382" lon="5.20896">
        <ele>202.49</ele>
        <time>2019-05-27T08:10:13Z</time>
      </trkpt>
      <trkpt lat="43.86393" lon="5.20898">
        <ele>202.98</ele>
        <time>2019-05-27T08:10:24Z</time>
      </trkpt>
      <trkpt lat="43.86397" lon="5.20897">
        <ele>202.98</ele>
        <time>2019-05-27T08:10:28Z</time>
      </trkpt>
      <trkpt lat="43.86412" lon="5.2089">
        <ele>202.98</ele>
        <time>2019-05-27T08:10:45Z</time>
      </trkpt>
      <trkpt lat="43.86429" lon="5.20874">
        <ele>202.49</ele>
        <time>2019-05-27T08:11:01Z</time>
      </trkpt>
      <trkpt lat="43.86441" lon="5.20868">
        <ele>202.49</ele>
        <time>2019-05-27T08:11:11Z</time>
      </trkpt>
      <trkpt lat="43.86454" lon="5.20871">
        <ele>202.49</ele>
        <time>2019-05-27T08:11:28Z</time>
      </trkpt>
      <trkpt lat="43.86456" lon="5.20874">
        <ele>202.49</ele>
        <time>2019-05-27T08:11:51Z</time>
      </trkpt>
      <trkpt lat="43.86459" lon="5.20879">
        <ele>202.49</ele>
        <time>2019-05-27T08:11:57Z</time>
      </trkpt>
      <trkpt lat="43.8647" lon="5.20901">
        <ele>203.94</ele>
        <time>2019-05-27T08:12:16Z</time>
      </trkpt>
      <trkpt lat="43.86478" lon="5.20928">
        <ele>204.9</ele>
        <time>2019-05-27T08:12:34Z</time>
      </trkpt>
      <trkpt lat="43.86487" lon="5.20951">
        <ele>206.34</ele>
        <time>2019-05-27T08:12:50Z</time>
      </trkpt>
      <trkpt lat="43.86496" lon="5.20973">
        <ele>207.78</ele>
        <time>2019-05-27T08:13:08Z</time>
      </trkpt>
      <trkpt lat="43.86518" lon="5.20991">
        <ele>208.74</ele>
        <time>2019-05-27T08:13:27Z</time>
      </trkpt>
      <trkpt lat="43.86528" lon="5.20997">
        <ele>209.22</ele>
        <time>2019-05-27T08:13:37Z</time>
      </trkpt>
      <trkpt lat="43.86557" lon="5.21012">
        <ele>210.19</ele>
        <time>2019-05-27T08:14:03Z</time>
      </trkpt>
      <trkpt lat="43.8656" lon="5.21012">
        <ele>210.19</ele>
        <time>2019-05-27T08:14:05Z</time>
      </trkpt>
      <trkpt lat="43.86573" lon="5.21024">
        <ele>212.11</ele>
        <time>2019-05-27T08:14:24Z</time>
      </trkpt>
      <trkpt lat="43.8659" lon="5.21035">
        <ele>212.59</ele>
        <time>2019-05-27T08:14:43Z</time>
      </trkpt>
      <trkpt lat="43.86612" lon="5.21049">
        <ele>213.55</ele>
        <time>2019-05-27T08:15:01Z</time>
      </trkpt>
      <trkpt lat="43.8663" lon="5.21058">
        <ele>214.51</ele>
        <time>2019-05-27T08:15:18Z</time>
      </trkpt>
      <trkpt lat="43.8665" lon="5.2107">
        <ele>215.95</ele>
        <time>2019-05-27T08:15:38Z</time>
      </trkpt>
      <trkpt lat="43.86669" lon="5.21086">
        <ele>217.4</ele>
        <time>2019-05-27T08:15:58Z</time>
      </trkpt>
      <trkpt lat="43.86689" lon="5.21098">
        <ele>219.32</ele>
        <time>2019-05-27T08:16:17Z</time>
      </trkpt>
      <trkpt lat="43.86709" lon="5.21109">
        <ele>221.24</ele>
        <time>2019-05-27T08:16:35Z</time>
      </trkpt>
      <trkpt lat="43.8673" lon="5.21121">
        <ele>222.68</ele>
        <time>2019-05-27T08:16:55Z</time>
      </trkpt>
      <trkpt lat="43.86751" lon="5.2113">
        <ele>224.12</ele>
        <time>2019-05-27T08:17:13Z</time>
      </trkpt>
      <trkpt lat="43.86765" lon="5.21143">
        <ele>225.57</ele>
        <time>2019-05-27T08:17:30Z</time>
      </trkpt>
      <trkpt lat="43.86768" lon="5.21151">
        <ele>226.53</ele>
        <time>2019-05-27T08:17:49Z</time>
      </trkpt>
      <trkpt lat="43.86766" lon="5.21154">
        <ele>227.01</ele>
        <time>2019-05-27T08:18:12Z</time>
      </trkpt>
      <trkpt lat="43.86753" lon="5.21171">
        <ele>227.49</ele>
        <time>2019-05-27T08:18:33Z</time>
      </trkpt>
      <trkpt lat="43.8674" lon="5.21191">
        <ele>227.97</ele>
        <time>2019-05-27T08:18:51Z</time>
      </trkpt>
      <trkpt lat="43.86739" lon="5.21193">
        <ele>227.97</ele>
        <time>2019-05-27T08:18:53Z</time>
      </trkpt>
      <trkpt lat="43.86727" lon="5.2122">
        <ele>228.45</ele>
        <time>2019-05-27T08:19:12Z</time>
      </trkpt>
      <trkpt lat="43.86717" lon="5.21246">
        <ele>228.93</ele>
        <time>2019-05-27T08:19:32Z</time>
      </trkpt>
      <trkpt lat="43.86712" lon="5.21262">
        <ele>229.41</ele>
        <time>2019-05-27T08:19:44Z</time>
      </trkpt>
      <trkpt lat="43.86705" lon="5.21292">
        <ele>230.37</ele>
        <time>2019-05-27T08:20:03Z</time>
      </trkpt>
      <trkpt lat="43.86705" lon="5.21316">
        <ele>231.81</ele>
        <time>2019-05-27T08:20:20Z</time>
      </trkpt>
      <trkpt lat="43.86705" lon="5.21342">
        <ele>233.26</ele>
        <time>2019-05-27T08:20:39Z</time>
      </trkpt>
      <trkpt lat="43.86705" lon="5.21369">
        <ele>234.22</ele>
        <time>2019-05-27T08:20:57Z</time>
      </trkpt>
      <trkpt lat="43.86707" lon="5.21392">
        <ele>235.18</ele>
        <time>2019-05-27T08:21:14Z</time>
      </trkpt>
      <trkpt lat="43.86706" lon="5.21419">
        <ele>235.66</ele>
        <time>2019-05-27T08:21:33Z</time>
      </trkpt>
      <trkpt lat="43.86703" lon="5.21449">
        <ele>236.62</ele>
        <time>2019-05-27T08:21:53Z</time>
      </trkpt>
      <trkpt lat="43.86702" lon="5.21465">
        <ele>237.1</ele>
        <time>2019-05-27T08:22:03Z</time>
      </trkpt>
      <trkpt lat="43.86701" lon="5.21472">
        <ele>237.58</ele>
        <time>2019-05-27T08:22:07Z</time>
      </trkpt>
      <trkpt lat="43.86701" lon="5.215">
        <ele>238.06</ele>
        <time>2019-05-27T08:22:25Z</time>
      </trkpt>
      <trkpt lat="43.86702" lon="5.21521">
        <ele>237.1</ele>
        <time>2019-05-27T08:22:42Z</time>
      </trkpt>
      <trkpt lat="43.867" lon="5.21553">
        <ele>236.14</ele>
        <time>2019-05-27T08:23:03Z</time>
      </trkpt>
      <trkpt lat="43.86694" lon="5.21577">
        <ele>236.62</ele>
        <time>2019-05-27T08:23:21Z</time>
      </trkpt>
      <trkpt lat="43.86689" lon="5.21615">
        <ele>238.06</ele>
        <time>2019-05-27T08:23:43Z</time>
      </trkpt>
      <trkpt lat="43.86686" lon="5.21642">
        <ele>239.02</ele>
        <time>2019-05-27T08:24:01Z</time>
      </trkpt>
      <trkpt lat="43.86689" lon="5.21668">
        <ele>239.99</ele>
        <time>2019-05-27T08:24:19Z</time>
      </trkpt>
      <trkpt lat="43.86687" lon="5.21697">
        <ele>240.47</ele>
        <time>2019-05-27T08:24:37Z</time>
      </trkpt>
      <trkpt lat="43.86685" lon="5.21709">
        <ele>240.47</ele>
        <time>2019-05-27T08:24:44Z</time>
      </trkpt>
      <trkpt lat="43.86681" lon="5.2174">
        <ele>240.95</ele>
        <time>2019-05-27T08:25:01Z</time>
      </trkpt>
      <trkpt lat="43.86678" lon="5.21769">
        <ele>240.47</ele>
        <time>2019-05-27T08:25:19Z</time>
      </trkpt>
      <trkpt lat="43.86676" lon="5.21799">
        <ele>240.47</ele>
        <time>2019-05-27T08:25:38Z</time>
      </trkpt>
      <trkpt lat="43.86675" lon="5.2183">
        <ele>240.47</ele>
        <time>2019-05-27T08:25:55Z</time>
      </trkpt>
      <trkpt lat="43.86676" lon="5.2186">
        <ele>240.47</ele>
        <time>2019-05-27T08:26:11Z</time>
      </trkpt>
      <trkpt lat="43.86681" lon="5.21886">
        <ele>241.43</ele>
        <time>2019-05-27T08:26:26Z</time>
      </trkpt>
      <trkpt lat="43.86686" lon="5.21898">
        <ele>241.43</ele>
        <time>2019-05-27T08:26:36Z</time>
      </trkpt>
      <trkpt lat="43.86692" lon="5.21903">
        <ele>241.43</ele>
        <time>2019-05-27T08:26:43Z</time>
      </trkpt>
      <trkpt lat="43.86712" lon="5.21915">
        <ele>241.91</ele>
        <time>2019-05-27T08:27:00Z</time>
      </trkpt>
      <trkpt lat="43.86724" lon="5.21928">
        <ele>242.39</ele>
        <time>2019-05-27T08:27:16Z</time>
      </trkpt>
      <trkpt lat="43.86736" lon="5.21937">
        <ele>242.87</ele>
        <time>2019-05-27T08:27:28Z</time>
      </trkpt>
      <trkpt lat="43.86757" lon="5.21942">
        <ele>243.35</ele>
        <time>2019-05-27T08:27:48Z</time>
      </trkpt>
      <trkpt lat="43.8676" lon="5.21942">
        <ele>243.35</ele>
        <time>2019-05-27T08:27:51Z</time>
      </trkpt>
      <trkpt lat="43.86767" lon="5.21949">
        <ele>243.83</ele>
        <time>2019-05-27T08:28:09Z</time>
      </trkpt>
      <trkpt lat="43.86757" lon="5.21947">
        <ele>243.83</ele>
        <time>2019-05-27T08:28:18Z</time>
      </trkpt>
      <trkpt lat="43.8674" lon="5.21941">
        <ele>243.83</ele>
        <time>2019-05-27T08:28:40Z</time>
      </trkpt>
      <trkpt lat="43.86721" lon="5.21922">
        <ele>243.35</ele>
        <time>2019-05-27T08:29:04Z</time>
      </trkpt>
      <trkpt lat="43.867" lon="5.21906">
        <ele>242.87</ele>
        <time>2019-05-27T08:29:24Z</time>
      </trkpt>
      <trkpt lat="43.86685" lon="5.21905">
        <ele>242.39</ele>
        <time>2019-05-27T08:29:43Z</time>
      </trkpt>
      <trkpt lat="43.86685" lon="5.21917">
        <ele>242.87</ele>
        <time>2019-05-27T08:29:53Z</time>
      </trkpt>
      <trkpt lat="43.86688" lon="5.21943">
        <ele>243.83</ele>
        <time>2019-05-27T08:30:09Z</time>
      </trkpt>
      <trkpt lat="43.86698" lon="5.21967">
        <ele>243.83</ele>
        <time>2019-05-27T08:30:25Z</time>
      </trkpt>
      <trkpt lat="43.86698" lon="5.21968">
        <ele>243.83</ele>
        <time>2019-05-27T08:30:26Z</time>
      </trkpt>
      <trkpt lat="43.86711" lon="5.21989">
        <ele>243.35</ele>
        <time>2019-05-27T08:30:44Z</time>
      </trkpt>
      <trkpt lat="43.86722" lon="5.22012">
        <ele>241.91</ele>
        <time>2019-05-27T08:31:01Z</time>
      </trkpt>
      <trkpt lat="43.86736" lon="5.22029">
        <ele>240.95</ele>
        <time>2019-05-27T08:31:16Z</time>
      </trkpt>
      <trkpt lat="43.86747" lon="5.2206">
        <ele>239.99</ele>
        <time>2019-05-27T08:31:36Z</time>
      </trkpt>
      <trkpt lat="43.86758" lon="5.22078">
        <ele>239.51</ele>
        <time>2019-05-27T08:31:51Z</time>
      </trkpt>
      <trkpt lat="43.86772" lon="5.22093">
        <ele>239.02</ele>
        <time>2019-05-27T08:32:07Z</time>
      </trkpt>
      <trkpt lat="43.86773" lon="5.22093">
        <ele>239.02</ele>
        <time>2019-05-27T08:32:08Z</time>
      </trkpt>
      <trkpt lat="43.86783" lon="5.22104">
        <ele>239.02</ele>
        <time>2019-05-27T08:32:20Z</time>
      </trkpt>
      <trkpt lat="43.86799" lon="5.22111">
        <ele>238.54</ele>
        <time>2019-05-27T08:32:38Z</time>
      </trkpt>
      <trkpt lat="43.86819" lon="5.22117">
        <ele>237.58</ele>
        <time>2019-05-27T08:32:56Z</time>
      </trkpt>
      <trkpt lat="43.86831" lon="5.22114">
        <ele>237.58</ele>
        <time>2019-05-27T08:33:12Z</time>
      </trkpt>
      <trkpt lat="43.86832" lon="5.22115">
        <ele>237.1</ele>
        <time>2019-05-27T08:33:39Z</time>
      </trkpt>
      <trkpt lat="43.86831" lon="5.22116">
        <ele>237.1</ele>
        <time>2019-05-27T08:34:50Z</time>
      </trkpt>
      <trkpt lat="43.86832" lon="5.22118">
        <ele>237.1</ele>
        <time>2019-05-27T08:35:33Z</time>
      </trkpt>
      <trkpt lat="43.86831" lon="5.22118">
        <ele>237.1</ele>
        <time>2019-05-27T08:36:14Z</time>
      </trkpt>
      <trkpt lat="43.86836" lon="5.22118">
        <ele>237.1</ele>
        <time>2019-05-27T08:36:54Z</time>
      </trkpt>
      <trkpt lat="43.86832" lon="5.22118">
        <ele>237.1</ele>
        <time>2019-05-27T08:37:28Z</time>
      </trkpt>
      <trkpt lat="43.86834" lon="5.22119">
        <ele>237.1</ele>
        <time>2019-05-27T08:38:08Z</time>
      </trkpt>
      <trkpt lat="43.86832" lon="5.22117">
        <ele>237.1</ele>
        <time>2019-05-27T08:39:37Z</time>
      </trkpt>
      <trkpt lat="43.86829" lon="5.22115">
        <ele>237.1</ele>
        <time>2019-05-27T08:41:14Z</time>
      </trkpt>
      <trkpt lat="43.86829" lon="5.22118">
        <ele>237.1</ele>
        <time>2019-05-27T08:42:27Z</time>
      </trkpt>
      <trkpt lat="43.86829" lon="5.22118">
        <ele>237.1</ele>
        <time>2019-05-27T08:43:02Z</time>
      </trkpt>
      <trkpt lat="43.86827" lon="5.22119">
        <ele>237.1</ele>
        <time>2019-05-27T08:43:30Z</time>
      </trkpt>
      <trkpt lat="43.86828" lon="5.2212">
        <ele>237.1</ele>
        <time>2019-05-27T08:44:01Z</time>
      </trkpt>
      <trkpt lat="43.86828" lon="5.22118">
        <ele>237.1</ele>
        <time>2019-05-27T08:44:53Z</time>
      </trkpt>
      <trkpt lat="43.86826" lon="5.2211">
        <ele>237.1</ele>
        <time>2019-05-27T08:45:26Z</time>
      </trkpt>
      <trkpt lat="43.86822" lon="5.22124">
        <ele>237.1</ele>
        <time>2019-05-27T08:46:01Z</time>
      </trkpt>
      <trkpt lat="43.86821" lon="5.22129">
        <ele>237.1</ele>
        <time>2019-05-27T08:46:04Z</time>
      </trkpt>
      <trkpt lat="43.86818" lon="5.22135">
        <ele>237.1</ele>
        <time>2019-05-27T08:46:08Z</time>
      </trkpt>
      <trkpt lat="43.86805" lon="5.22149">
        <ele>235.18</ele>
        <time>2019-05-27T08:46:27Z</time>
      </trkpt>
      <trkpt lat="43.86796" lon="5.22153">
        <ele>234.7</ele>
        <time>2019-05-27T08:46:36Z</time>
      </trkpt>
      <trkpt lat="43.86776" lon="5.22158">
        <ele>232.78</ele>
        <time>2019-05-27T08:46:55Z</time>
      </trkpt>
      <trkpt lat="43.86759" lon="5.2216">
        <ele>230.85</ele>
        <time>2019-05-27T08:47:13Z</time>
      </trkpt>
      <trkpt lat="43.86738" lon="5.22157">
        <ele>229.89</ele>
        <time>2019-05-27T08:47:31Z</time>
      </trkpt>
      <trkpt lat="43.86717" lon="5.22153">
        <ele>228.93</ele>
        <time>2019-05-27T08:47:48Z</time>
      </trkpt>
      <trkpt lat="43.86697" lon="5.22149">
        <ele>227.49</ele>
        <time>2019-05-27T08:48:05Z</time>
      </trkpt>
      <trkpt lat="43.86679" lon="5.22148">
        <ele>226.05</ele>
        <time>2019-05-27T08:48:22Z</time>
      </trkpt>
      <trkpt lat="43.86678" lon="5.22148">
        <ele>226.05</ele>
        <time>2019-05-27T08:48:23Z</time>
      </trkpt>
      <trkpt lat="43.86658" lon="5.22153">
        <ele>224.61</ele>
        <time>2019-05-27T08:48:41Z</time>
      </trkpt>
      <trkpt lat="43.86643" lon="5.22161">
        <ele>222.68</ele>
        <time>2019-05-27T08:48:57Z</time>
      </trkpt>
      <trkpt lat="43.86623" lon="5.22168">
        <ele>221.24</ele>
        <time>2019-05-27T08:49:14Z</time>
      </trkpt>
      <trkpt lat="43.86603" lon="5.22176">
        <ele>220.28</ele>
        <time>2019-05-27T08:49:31Z</time>
      </trkpt>
      <trkpt lat="43.86586" lon="5.22186">
        <ele>219.32</ele>
        <time>2019-05-27T08:49:46Z</time>
      </trkpt>
      <trkpt lat="43.86569" lon="5.22197">
        <ele>217.88</ele>
        <time>2019-05-27T08:50:03Z</time>
      </trkpt>
      <trkpt lat="43.86553" lon="5.22212">
        <ele>216.91</ele>
        <time>2019-05-27T08:50:19Z</time>
      </trkpt>
      <trkpt lat="43.86538" lon="5.22221">
        <ele>216.43</ele>
        <time>2019-05-27T08:50:34Z</time>
      </trkpt>
      <trkpt lat="43.86525" lon="5.22232">
        <ele>215.95</ele>
        <time>2019-05-27T08:50:48Z</time>
      </trkpt>
      <trkpt lat="43.86508" lon="5.22249">
        <ele>214.99</ele>
        <time>2019-05-27T08:51:05Z</time>
      </trkpt>
      <trkpt lat="43.86493" lon="5.22266">
        <ele>214.03</ele>
        <time>2019-05-27T08:51:22Z</time>
      </trkpt>
      <trkpt lat="43.8648" lon="5.22284">
        <ele>213.07</ele>
        <time>2019-05-27T08:51:40Z</time>
      </trkpt>
      <trkpt lat="43.86463" lon="5.22305">
        <ele>212.59</ele>
        <time>2019-05-27T08:52:02Z</time>
      </trkpt>
      <trkpt lat="43.86448" lon="5.22324">
        <ele>211.63</ele>
        <time>2019-05-27T08:52:20Z</time>
      </trkpt>
      <trkpt lat="43.86458" lon="5.22333">
        <ele>209.7</ele>
        <time>2019-05-27T08:52:37Z</time>
      </trkpt>
      <trkpt lat="43.8647" lon="5.22334">
        <ele>208.26</ele>
        <time>2019-05-27T08:52:50Z</time>
      </trkpt>
      <trkpt lat="43.8648" lon="5.22361">
        <ele>208.26</ele>
        <time>2019-05-27T08:53:09Z</time>
      </trkpt>
      <trkpt lat="43.86489" lon="5.22374">
        <ele>211.63</ele>
        <time>2019-05-27T08:53:27Z</time>
      </trkpt>
      <trkpt lat="43.86494" lon="5.22391">
        <ele>214.51</ele>
        <time>2019-05-27T08:53:47Z</time>
      </trkpt>
      <trkpt lat="43.86499" lon="5.22409">
        <ele>217.4</ele>
        <time>2019-05-27T08:54:06Z</time>
      </trkpt>
      <trkpt lat="43.86503" lon="5.22427">
        <ele>220.76</ele>
        <time>2019-05-27T08:54:24Z</time>
      </trkpt>
      <trkpt lat="43.86508" lon="5.22445">
        <ele>223.64</ele>
        <time>2019-05-27T08:54:44Z</time>
      </trkpt>
      <trkpt lat="43.86508" lon="5.22455">
        <ele>227.01</ele>
        <time>2019-05-27T08:55:00Z</time>
      </trkpt>
      <trkpt lat="43.86505" lon="5.22458">
        <ele>226.53</ele>
        <time>2019-05-27T08:55:17Z</time>
      </trkpt>
      <trkpt lat="43.86489" lon="5.22476">
        <ele>225.57</ele>
        <time>2019-05-27T08:55:35Z</time>
      </trkpt>
      <trkpt lat="43.86474" lon="5.22497">
        <ele>226.05</ele>
        <time>2019-05-27T08:55:55Z</time>
      </trkpt>
      <trkpt lat="43.86459" lon="5.22507">
        <ele>227.49</ele>
        <time>2019-05-27T08:56:13Z</time>
      </trkpt>
      <trkpt lat="43.86443" lon="5.22524">
        <ele>229.89</ele>
        <time>2019-05-27T08:56:34Z</time>
      </trkpt>
      <trkpt lat="43.86426" lon="5.22539">
        <ele>232.3</ele>
        <time>2019-05-27T08:56:57Z</time>
      </trkpt>
      <trkpt lat="43.86404" lon="5.22547">
        <ele>233.74</ele>
        <time>2019-05-27T08:57:17Z</time>
      </trkpt>
      <trkpt lat="43.86383" lon="5.22559">
        <ele>235.66</ele>
        <time>2019-05-27T08:57:37Z</time>
      </trkpt>
      <trkpt lat="43.86369" lon="5.22572">
        <ele>236.14</ele>
        <time>2019-05-27T08:57:53Z</time>
      </trkpt>
      <trkpt lat="43.86361" lon="5.22577">
        <ele>236.62</ele>
        <time>2019-05-27T08:58:00Z</time>
      </trkpt>
      <trkpt lat="43.86343" lon="5.22588">
        <ele>236.14</ele>
        <time>2019-05-27T08:58:18Z</time>
      </trkpt>
      <trkpt lat="43.86332" lon="5.22597">
        <ele>236.14</ele>
        <time>2019-05-27T08:58:31Z</time>
      </trkpt>
      <trkpt lat="43.86303" lon="5.22609">
        <ele>236.62</ele>
        <time>2019-05-27T08:58:52Z</time>
      </trkpt>
      <trkpt lat="43.86287" lon="5.22617">
        <ele>237.1</ele>
        <time>2019-05-27T08:59:07Z</time>
      </trkpt>
      <trkpt lat="43.86276" lon="5.22624">
        <ele>237.58</ele>
        <time>2019-05-27T08:59:19Z</time>
      </trkpt>
      <trkpt lat="43.86256" lon="5.22634">
        <ele>237.58</ele>
        <time>2019-05-27T08:59:38Z</time>
      </trkpt>
      <trkpt lat="43.86241" lon="5.22649">
        <ele>238.54</ele>
        <time>2019-05-27T08:59:54Z</time>
      </trkpt>
      <trkpt lat="43.86225" lon="5.22655">
        <ele>239.99</ele>
        <time>2019-05-27T09:00:12Z</time>
      </trkpt>
      <trkpt lat="43.86212" lon="5.22653">
        <ele>238.54</ele>
        <time>2019-05-27T09:00:28Z</time>
      </trkpt>
      <trkpt lat="43.86195" lon="5.2266">
        <ele>239.02</ele>
        <time>2019-05-27T09:00:46Z</time>
      </trkpt>
      <trkpt lat="43.86179" lon="5.22669">
        <ele>238.54</ele>
        <time>2019-05-27T09:01:01Z</time>
      </trkpt>
      <trkpt lat="43.86173" lon="5.22672">
        <ele>238.54</ele>
        <time>2019-05-27T09:01:18Z</time>
      </trkpt>
      <trkpt lat="43.86162" lon="5.22691">
        <ele>239.02</ele>
        <time>2019-05-27T09:01:38Z</time>
      </trkpt>
      <trkpt lat="43.86163" lon="5.22696">
        <ele>239.51</ele>
        <time>2019-05-27T09:01:55Z</time>
      </trkpt>
      <trkpt lat="43.86163" lon="5.22707">
        <ele>241.43</ele>
        <time>2019-05-27T09:02:19Z</time>
      </trkpt>
      <trkpt lat="43.86161" lon="5.22725">
        <ele>242.87</ele>
        <time>2019-05-27T09:02:39Z</time>
      </trkpt>
      <trkpt lat="43.86158" lon="5.22751">
        <ele>243.35</ele>
        <time>2019-05-27T09:03:00Z</time>
      </trkpt>
      <trkpt lat="43.86148" lon="5.22777">
        <ele>243.83</ele>
        <time>2019-05-27T09:03:19Z</time>
      </trkpt>
      <trkpt lat="43.86147" lon="5.22778">
        <ele>243.83</ele>
        <time>2019-05-27T09:03:20Z</time>
      </trkpt>
      <trkpt lat="43.86136" lon="5.2281">
        <ele>244.31</ele>
        <time>2019-05-27T09:03:40Z</time>
      </trkpt>
      <trkpt lat="43.86127" lon="5.22834">
        <ele>244.79</ele>
        <time>2019-05-27T09:03:58Z</time>
      </trkpt>
      <trkpt lat="43.86118" lon="5.22849">
        <ele>245.27</ele>
        <time>2019-05-27T09:04:09Z</time>
      </trkpt>
      <trkpt lat="43.86105" lon="5.22866">
        <ele>244.79</ele>
        <time>2019-05-27T09:04:25Z</time>
      </trkpt>
      <trkpt lat="43.8609" lon="5.22885">
        <ele>244.79</ele>
        <time>2019-05-27T09:04:45Z</time>
      </trkpt>
      <trkpt lat="43.86082" lon="5.22901">
        <ele>244.31</ele>
        <time>2019-05-27T09:04:59Z</time>
      </trkpt>
      <trkpt lat="43.86077" lon="5.22923">
        <ele>242.87</ele>
        <time>2019-05-27T09:05:18Z</time>
      </trkpt>
      <trkpt lat="43.86095" lon="5.22935">
        <ele>241.43</ele>
        <time>2019-05-27T09:05:37Z</time>
      </trkpt>
      <trkpt lat="43.86093" lon="5.2295">
        <ele>239.02</ele>
        <time>2019-05-27T09:05:56Z</time>
      </trkpt>
      <trkpt lat="43.86095" lon="5.22959">
        <ele>237.58</ele>
        <time>2019-05-27T09:06:17Z</time>
      </trkpt>
      <trkpt lat="43.86097" lon="5.22975">
        <ele>234.22</ele>
        <time>2019-05-27T09:06:34Z</time>
      </trkpt>
      <trkpt lat="43.86095" lon="5.22989">
        <ele>230.85</ele>
        <time>2019-05-27T09:06:50Z</time>
      </trkpt>
      <trkpt lat="43.86098" lon="5.23">
        <ele>228.93</ele>
        <time>2019-05-27T09:07:08Z</time>
      </trkpt>
      <trkpt lat="43.86093" lon="5.23007">
        <ele>227.01</ele>
        <time>2019-05-27T09:07:25Z</time>
      </trkpt>
      <trkpt lat="43.86085" lon="5.23015">
        <ele>224.12</ele>
        <time>2019-05-27T09:07:44Z</time>
      </trkpt>
      <trkpt lat="43.86086" lon="5.23019">
        <ele>222.2</ele>
        <time>2019-05-27T09:08:03Z</time>
      </trkpt>
      <trkpt lat="43.86087" lon="5.23018">
        <ele>221.72</ele>
        <time>2019-05-27T09:08:25Z</time>
      </trkpt>
      <trkpt lat="43.86094" lon="5.23022">
        <ele>219.8</ele>
        <time>2019-05-27T09:08:53Z</time>
      </trkpt>
      <trkpt lat="43.86096" lon="5.23025">
        <ele>217.88</ele>
        <time>2019-05-27T09:09:12Z</time>
      </trkpt>
      <trkpt lat="43.86099" lon="5.2303">
        <ele>215.95</ele>
        <time>2019-05-27T09:09:38Z</time>
      </trkpt>
      <trkpt lat="43.86106" lon="5.23035">
        <ele>212.59</ele>
        <time>2019-05-27T09:09:54Z</time>
      </trkpt>
      <trkpt lat="43.8611" lon="5.23037">
        <ele>209.7</ele>
        <time>2019-05-27T09:10:12Z</time>
      </trkpt>
      <trkpt lat="43.86114" lon="5.23042">
        <ele>206.82</ele>
        <time>2019-05-27T09:10:36Z</time>
      </trkpt>
      <trkpt lat="43.86118" lon="5.23047">
        <ele>203.46</ele>
        <time>2019-05-27T09:10:51Z</time>
      </trkpt>
      <trkpt lat="43.86123" lon="5.23055">
        <ele>200.57</ele>
        <time>2019-05-27T09:11:06Z</time>
      </trkpt>
      <trkpt lat="43.86127" lon="5.23059">
        <ele>198.65</ele>
        <time>2019-05-27T09:11:29Z</time>
      </trkpt>
      <trkpt lat="43.86136" lon="5.23055">
        <ele>195.28</ele>
        <time>2019-05-27T09:11:46Z</time>
      </trkpt>
      <trkpt lat="43.8614" lon="5.23059">
        <ele>193.36</ele>
        <time>2019-05-27T09:12:04Z</time>
      </trkpt>
      <trkpt lat="43.86142" lon="5.23052">
        <ele>193.36</ele>
        <time>2019-05-27T09:12:32Z</time>
      </trkpt>
      <trkpt lat="43.86153" lon="5.23044">
        <ele>194.32</ele>
        <time>2019-05-27T09:12:55Z</time>
      </trkpt>
      <trkpt lat="43.86157" lon="5.23044">
        <ele>194.32</ele>
        <time>2019-05-27T09:12:58Z</time>
      </trkpt>
      <trkpt lat="43.86177" lon="5.23048">
        <ele>194.32</ele>
        <time>2019-05-27T09:13:16Z</time>
      </trkpt>
      <trkpt lat="43.86179" lon="5.23048">
        <ele>193.84</ele>
        <time>2019-05-27T09:13:17Z</time>
      </trkpt>
      <trkpt lat="43.86184" lon="5.23049">
        <ele>193.36</ele>
        <time>2019-05-27T09:13:23Z</time>
      </trkpt>
      <trkpt lat="43.86192" lon="5.23048">
        <ele>192.4</ele>
        <time>2019-05-27T09:13:35Z</time>
      </trkpt>
      <trkpt lat="43.86193" lon="5.23047">
        <ele>192.4</ele>
        <time>2019-05-27T09:13:56Z</time>
      </trkpt>
      <trkpt lat="43.86196" lon="5.2304">
        <ele>191.44</ele>
        <time>2019-05-27T09:14:22Z</time>
      </trkpt>
      <trkpt lat="43.86195" lon="5.2304">
        <ele>192.4</ele>
        <time>2019-05-27T09:14:41Z</time>
      </trkpt>
      <trkpt lat="43.86195" lon="5.23043">
        <ele>192.4</ele>
        <time>2019-05-27T09:15:09Z</time>
      </trkpt>
      <trkpt lat="43.86195" lon="5.23044">
        <ele>192.4</ele>
        <time>2019-05-27T09:15:39Z</time>
      </trkpt>
      <trkpt lat="43.86194" lon="5.23045">
        <ele>192.4</ele>
        <time>2019-05-27T09:15:56Z</time>
      </trkpt>
      <trkpt lat="43.86193" lon="5.2304">
        <ele>192.4</ele>
        <time>2019-05-27T09:15:59Z</time>
      </trkpt>
      <trkpt lat="43.86181" lon="5.23037">
        <ele>192.4</ele>
        <time>2019-05-27T09:16:14Z</time>
      </trkpt>
      <trkpt lat="43.86166" lon="5.2304">
        <ele>192.4</ele>
        <time>2019-05-27T09:16:31Z</time>
      </trkpt>
      <trkpt lat="43.86147" lon="5.23045">
        <ele>192.4</ele>
        <time>2019-05-27T09:16:46Z</time>
      </trkpt>
      <trkpt lat="43.86137" lon="5.23054">
        <ele>192.88</ele>
        <time>2019-05-27T09:17:04Z</time>
      </trkpt>
      <trkpt lat="43.86143" lon="5.23058">
        <ele>190</ele>
        <time>2019-05-27T09:17:18Z</time>
      </trkpt>
      <trkpt lat="43.86154" lon="5.23062">
        <ele>186.63</ele>
        <time>2019-05-27T09:17:35Z</time>
      </trkpt>
      <trkpt lat="43.86157" lon="5.23066">
        <ele>183.75</ele>
        <time>2019-05-27T09:17:55Z</time>
      </trkpt>
      <trkpt lat="43.86159" lon="5.23073">
        <ele>180.38</ele>
        <time>2019-05-27T09:18:11Z</time>
      </trkpt>
      <trkpt lat="43.8616" lon="5.23082">
        <ele>177.5</ele>
        <time>2019-05-27T09:18:31Z</time>
      </trkpt>
      <trkpt lat="43.86164" lon="5.23088">
        <ele>174.62</ele>
        <time>2019-05-27T09:18:49Z</time>
      </trkpt>
      <trkpt lat="43.86166" lon="5.23096">
        <ele>171.25</ele>
        <time>2019-05-27T09:19:04Z</time>
      </trkpt>
      <trkpt lat="43.86167" lon="5.23102">
        <ele>168.37</ele>
        <time>2019-05-27T09:19:21Z</time>
      </trkpt>
      <trkpt lat="43.86173" lon="5.23107">
        <ele>165</ele>
        <time>2019-05-27T09:19:40Z</time>
      </trkpt>
      <trkpt lat="43.86174" lon="5.23119">
        <ele>162.12</ele>
        <time>2019-05-27T09:20:00Z</time>
      </trkpt>
      <trkpt lat="43.86175" lon="5.23119">
        <ele>162.12</ele>
        <time>2019-05-27T09:20:24Z</time>
      </trkpt>
      <trkpt lat="43.86174" lon="5.23115">
        <ele>162.12</ele>
        <time>2019-05-27T09:20:51Z</time>
      </trkpt>
      <trkpt lat="43.86167" lon="5.23109">
        <ele>162.12</ele>
        <time>2019-05-27T09:21:16Z</time>
      </trkpt>
      <trkpt lat="43.8616" lon="5.23114">
        <ele>162.12</ele>
        <time>2019-05-27T09:21:46Z</time>
      </trkpt>
      <trkpt lat="43.86158" lon="5.23114">
        <ele>162.12</ele>
        <time>2019-05-27T09:22:11Z</time>
      </trkpt>
      <trkpt lat="43.86162" lon="5.2311">
        <ele>162.12</ele>
        <time>2019-05-27T09:22:41Z</time>
      </trkpt>
      <trkpt lat="43.86167" lon="5.23112">
        <ele>162.12</ele>
        <time>2019-05-27T09:23:01Z</time>
      </trkpt>
      <trkpt lat="43.86169" lon="5.23111">
        <ele>163.08</ele>
        <time>2019-05-27T09:23:26Z</time>
      </trkpt>
      <trkpt lat="43.86173" lon="5.23117">
        <ele>160.2</ele>
        <time>2019-05-27T09:23:44Z</time>
      </trkpt>
      <trkpt lat="43.86172" lon="5.23145">
        <ele>157.79</ele>
        <time>2019-05-27T09:23:57Z</time>
      </trkpt>
      <trkpt lat="43.86172" lon="5.23149">
        <ele>157.79</ele>
        <time>2019-05-27T09:24:00Z</time>
      </trkpt>
      <trkpt lat="43.86175" lon="5.23163">
        <ele>157.79</ele>
        <time>2019-05-27T09:24:13Z</time>
      </trkpt>
      <trkpt lat="43.86183" lon="5.23186">
        <ele>157.31</ele>
        <time>2019-05-27T09:24:35Z</time>
      </trkpt>
      <trkpt lat="43.86186" lon="5.23191">
        <ele>156.83</ele>
        <time>2019-05-27T09:24:54Z</time>
      </trkpt>
      <trkpt lat="43.86194" lon="5.23191">
        <ele>156.83</ele>
        <time>2019-05-27T09:25:12Z</time>
      </trkpt>
      <trkpt lat="43.8621" lon="5.23196">
        <ele>160.2</ele>
        <time>2019-05-27T09:25:32Z</time>
      </trkpt>
      <trkpt lat="43.86219" lon="5.23215">
        <ele>162.6</ele>
        <time>2019-05-27T09:25:52Z</time>
      </trkpt>
      <trkpt lat="43.8622" lon="5.2323">
        <ele>164.04</ele>
        <time>2019-05-27T09:26:06Z</time>
      </trkpt>
      <trkpt lat="43.86228" lon="5.23245">
        <ele>165</ele>
        <time>2019-05-27T09:26:23Z</time>
      </trkpt>
      <trkpt lat="43.86222" lon="5.23251">
        <ele>165</ele>
        <time>2019-05-27T09:26:43Z</time>
      </trkpt>
      <trkpt lat="43.8622" lon="5.2327">
        <ele>166.93</ele>
        <time>2019-05-27T09:27:02Z</time>
      </trkpt>
      <trkpt lat="43.86219" lon="5.23291">
        <ele>169.81</ele>
        <time>2019-05-27T09:27:23Z</time>
      </trkpt>
      <trkpt lat="43.86219" lon="5.23305">
        <ele>173.17</ele>
        <time>2019-05-27T09:27:41Z</time>
      </trkpt>
      <trkpt lat="43.86216" lon="5.23321">
        <ele>176.06</ele>
        <time>2019-05-27T09:28:01Z</time>
      </trkpt>
      <trkpt lat="43.86216" lon="5.23337">
        <ele>179.42</ele>
        <time>2019-05-27T09:28:19Z</time>
      </trkpt>
      <trkpt lat="43.86221" lon="5.23358">
        <ele>181.35</ele>
        <time>2019-05-27T09:28:41Z</time>
      </trkpt>
      <trkpt lat="43.86224" lon="5.23377">
        <ele>184.23</ele>
        <time>2019-05-27T09:29:03Z</time>
      </trkpt>
      <trkpt lat="43.86223" lon="5.23395">
        <ele>187.11</ele>
        <time>2019-05-27T09:29:23Z</time>
      </trkpt>
      <trkpt lat="43.86224" lon="5.23413">
        <ele>190</ele>
        <time>2019-05-27T09:29:40Z</time>
      </trkpt>
      <trkpt lat="43.86224" lon="5.2342">
        <ele>190</ele>
        <time>2019-05-27T09:30:03Z</time>
      </trkpt>
      <trkpt lat="43.86225" lon="5.23419">
        <ele>189.52</ele>
        <time>2019-05-27T09:31:22Z</time>
      </trkpt>
      <trkpt lat="43.86225" lon="5.2342">
        <ele>189.52</ele>
        <time>2019-05-27T09:31:57Z</time>
      </trkpt>
      <trkpt lat="43.86223" lon="5.23417">
        <ele>189.52</ele>
        <time>2019-05-27T09:32:22Z</time>
      </trkpt>
      <trkpt lat="43.86222" lon="5.23419">
        <ele>189.52</ele>
        <time>2019-05-27T09:32:40Z</time>
      </trkpt>
      <trkpt lat="43.86221" lon="5.23417">
        <ele>189.52</ele>
        <time>2019-05-27T09:32:57Z</time>
      </trkpt>
      <trkpt lat="43.86223" lon="5.23417">
        <ele>189.52</ele>
        <time>2019-05-27T09:33:23Z</time>
      </trkpt>
      <trkpt lat="43.86222" lon="5.23421">
        <ele>189.52</ele>
        <time>2019-05-27T09:33:33Z</time>
      </trkpt>
      <trkpt lat="43.86222" lon="5.23438">
        <ele>190.96</ele>
        <time>2019-05-27T09:33:47Z</time>
      </trkpt>
      <trkpt lat="43.86222" lon="5.23446">
        <ele>190.96</ele>
        <time>2019-05-27T09:33:53Z</time>
      </trkpt>
      <trkpt lat="43.8623" lon="5.23463">
        <ele>192.4</ele>
        <time>2019-05-27T09:34:09Z</time>
      </trkpt>
      <trkpt lat="43.86247" lon="5.23472">
        <ele>194.32</ele>
        <time>2019-05-27T09:34:25Z</time>
      </trkpt>
      <trkpt lat="43.86251" lon="5.23488">
        <ele>197.21</ele>
        <time>2019-05-27T09:34:44Z</time>
      </trkpt>
      <trkpt lat="43.86257" lon="5.23513">
        <ele>200.09</ele>
        <time>2019-05-27T09:35:06Z</time>
      </trkpt>
      <trkpt lat="43.86268" lon="5.23528">
        <ele>202.98</ele>
        <time>2019-05-27T09:35:27Z</time>
      </trkpt>
      <trkpt lat="43.86271" lon="5.23549">
        <ele>205.86</ele>
        <time>2019-05-27T09:35:47Z</time>
      </trkpt>
      <trkpt lat="43.86272" lon="5.23559">
        <ele>207.78</ele>
        <time>2019-05-27T09:35:59Z</time>
      </trkpt>
      <trkpt lat="43.86277" lon="5.23578">
        <ele>209.7</ele>
        <time>2019-05-27T09:36:18Z</time>
      </trkpt>
      <trkpt lat="43.86286" lon="5.23591">
        <ele>212.59</ele>
        <time>2019-05-27T09:36:33Z</time>
      </trkpt>
      <trkpt lat="43.86291" lon="5.23607">
        <ele>214.99</ele>
        <time>2019-05-27T09:36:49Z</time>
      </trkpt>
      <trkpt lat="43.86296" lon="5.23625">
        <ele>217.88</ele>
        <time>2019-05-27T09:37:07Z</time>
      </trkpt>
      <trkpt lat="43.86294" lon="5.23637">
        <ele>220.76</ele>
        <time>2019-05-27T09:37:21Z</time>
      </trkpt>
      <trkpt lat="43.86291" lon="5.23655">
        <ele>224.12</ele>
        <time>2019-05-27T09:37:40Z</time>
      </trkpt>
      <trkpt lat="43.86287" lon="5.2368">
        <ele>227.01</ele>
        <time>2019-05-27T09:38:03Z</time>
      </trkpt>
      <trkpt lat="43.86289" lon="5.23701">
        <ele>229.89</ele>
        <time>2019-05-27T09:38:24Z</time>
      </trkpt>
      <trkpt lat="43.86294" lon="5.23715">
        <ele>232.78</ele>
        <time>2019-05-27T09:38:40Z</time>
      </trkpt>
      <trkpt lat="43.86299" lon="5.23733">
        <ele>234.7</ele>
        <time>2019-05-27T09:38:55Z</time>
      </trkpt>
      <trkpt lat="43.86304" lon="5.23752">
        <ele>237.1</ele>
        <time>2019-05-27T09:39:13Z</time>
      </trkpt>
      <trkpt lat="43.86305" lon="5.2377">
        <ele>239.02</ele>
        <time>2019-05-27T09:39:28Z</time>
      </trkpt>
      <trkpt lat="43.86309" lon="5.23789">
        <ele>242.39</ele>
        <time>2019-05-27T09:39:45Z</time>
      </trkpt>
      <trkpt lat="43.86314" lon="5.23814">
        <ele>245.27</ele>
        <time>2019-05-27T09:40:08Z</time>
      </trkpt>
      <trkpt lat="43.86316" lon="5.23832">
        <ele>248.64</ele>
        <time>2019-05-27T09:40:25Z</time>
      </trkpt>
      <trkpt lat="43.86317" lon="5.23841">
        <ele>251.52</ele>
        <time>2019-05-27T09:40:35Z</time>
      </trkpt>
      <trkpt lat="43.86318" lon="5.23854">
        <ele>254.89</ele>
        <time>2019-05-27T09:40:50Z</time>
      </trkpt>
      <trkpt lat="43.86324" lon="5.23867">
        <ele>257.77</ele>
        <time>2019-05-27T09:41:05Z</time>
      </trkpt>
      <trkpt lat="43.86324" lon="5.23883">
        <ele>260.65</ele>
        <time>2019-05-27T09:41:22Z</time>
      </trkpt>
      <trkpt lat="43.86327" lon="5.239">
        <ele>264.02</ele>
        <time>2019-05-27T09:41:37Z</time>
      </trkpt>
      <trkpt lat="43.86324" lon="5.23911">
        <ele>266.9</ele>
        <time>2019-05-27T09:41:53Z</time>
      </trkpt>
      <trkpt lat="43.86316" lon="5.23917">
        <ele>269.79</ele>
        <time>2019-05-27T09:42:09Z</time>
      </trkpt>
      <trkpt lat="43.86316" lon="5.23917">
        <ele>270.27</ele>
        <time>2019-05-27T09:42:31Z</time>
      </trkpt>
      <trkpt lat="43.86313" lon="5.2392">
        <ele>268.83</ele>
        <time>2019-05-27T09:42:58Z</time>
      </trkpt>
      <trkpt lat="43.86312" lon="5.23917">
        <ele>269.31</ele>
        <time>2019-05-27T09:43:39Z</time>
      </trkpt>
      <trkpt lat="43.86312" lon="5.23916">
        <ele>269.79</ele>
        <time>2019-05-27T09:44:14Z</time>
      </trkpt>
      <trkpt lat="43.86312" lon="5.23914">
        <ele>269.79</ele>
        <time>2019-05-27T09:44:44Z</time>
      </trkpt>
      <trkpt lat="43.86315" lon="5.23918">
        <ele>270.75</ele>
        <time>2019-05-27T09:45:07Z</time>
      </trkpt>
      <trkpt lat="43.86316" lon="5.23918">
        <ele>269.79</ele>
        <time>2019-05-27T09:45:37Z</time>
      </trkpt>
      <trkpt lat="43.86316" lon="5.23918">
        <ele>271.23</ele>
        <time>2019-05-27T09:46:08Z</time>
      </trkpt>
      <trkpt lat="43.86316" lon="5.23917">
        <ele>271.23</ele>
        <time>2019-05-27T09:46:39Z</time>
      </trkpt>
      <trkpt lat="43.86318" lon="5.2393">
        <ele>271.23</ele>
        <time>2019-05-27T09:47:05Z</time>
      </trkpt>
      <trkpt lat="43.86322" lon="5.23939">
        <ele>271.23</ele>
        <time>2019-05-27T09:47:26Z</time>
      </trkpt>
      <trkpt lat="43.86336" lon="5.23956">
        <ele>271.23</ele>
        <time>2019-05-27T09:47:45Z</time>
      </trkpt>
      <trkpt lat="43.86349" lon="5.2397">
        <ele>271.23</ele>
        <time>2019-05-27T09:48:00Z</time>
      </trkpt>
      <trkpt lat="43.86353" lon="5.23972">
        <ele>271.23</ele>
        <time>2019-05-27T09:48:03Z</time>
      </trkpt>
      <trkpt lat="43.86357" lon="5.23976">
        <ele>271.23</ele>
        <time>2019-05-27T09:48:07Z</time>
      </trkpt>
      <trkpt lat="43.86372" lon="5.23989">
        <ele>272.19</ele>
        <time>2019-05-27T09:48:26Z</time>
      </trkpt>
      <trkpt lat="43.86367" lon="5.24007">
        <ele>273.15</ele>
        <time>2019-05-27T09:48:45Z</time>
      </trkpt>
      <trkpt lat="43.8636" lon="5.24004">
        <ele>273.63</ele>
        <time>2019-05-27T09:49:01Z</time>
      </trkpt>
      <trkpt lat="43.86354" lon="5.24003">
        <ele>272.67</ele>
        <time>2019-05-27T09:49:18Z</time>
      </trkpt>
      <trkpt lat="43.86361" lon="5.24004">
        <ele>272.67</ele>
        <time>2019-05-27T09:49:34Z</time>
      </trkpt>
      <trkpt lat="43.86356" lon="5.23994">
        <ele>272.19</ele>
        <time>2019-05-27T09:49:58Z</time>
      </trkpt>
      <trkpt lat="43.86354" lon="5.23992">
        <ele>272.19</ele>
        <time>2019-05-27T09:50:03Z</time>
      </trkpt>
      <trkpt lat="43.8635" lon="5.23986">
        <ele>272.67</ele>
        <time>2019-05-27T09:50:09Z</time>
      </trkpt>
      <trkpt lat="43.8634" lon="5.23976">
        <ele>272.19</ele>
        <time>2019-05-27T09:50:17Z</time>
      </trkpt>
      <trkpt lat="43.86329" lon="5.23954">
        <ele>271.71</ele>
        <time>2019-05-27T09:50:37Z</time>
      </trkpt>
      <trkpt lat="43.86331" lon="5.23957">
        <ele>271.23</ele>
        <time>2019-05-27T09:50:52Z</time>
      </trkpt>
      <trkpt lat="43.86333" lon="5.23961">
        <ele>271.23</ele>
        <time>2019-05-27T09:50:57Z</time>
      </trkpt>
      <trkpt lat="43.86338" lon="5.23974">
        <ele>271.23</ele>
        <time>2019-05-27T09:51:11Z</time>
      </trkpt>
      <trkpt lat="43.86348" lon="5.23989">
        <ele>271.71</ele>
        <time>2019-05-27T09:51:26Z</time>
      </trkpt>
      <trkpt lat="43.86352" lon="5.23992">
        <ele>271.71</ele>
        <time>2019-05-27T09:51:30Z</time>
      </trkpt>
      <trkpt lat="43.86356" lon="5.23996">
        <ele>272.19</ele>
        <time>2019-05-27T09:51:44Z</time>
      </trkpt>
      <trkpt lat="43.86356" lon="5.23997">
        <ele>272.19</ele>
        <time>2019-05-27T09:52:51Z</time>
      </trkpt>
      <trkpt lat="43.86359" lon="5.23999">
        <ele>272.67</ele>
        <time>2019-05-27T09:56:05Z</time>
      </trkpt>
      <trkpt lat="43.86359" lon="5.23994">
        <ele>272.67</ele>
        <time>2019-05-27T09:56:21Z</time>
      </trkpt>
      <trkpt lat="43.86358" lon="5.23994">
        <ele>272.67</ele>
        <time>2019-05-27T09:56:53Z</time>
      </trkpt>
      <trkpt lat="43.86358" lon="5.23995">
        <ele>273.15</ele>
        <time>2019-05-27T09:57:24Z</time>
      </trkpt>
      <trkpt lat="43.86359" lon="5.23994">
        <ele>273.15</ele>
        <time>2019-05-27T09:57:45Z</time>
      </trkpt>
      <trkpt lat="43.86362" lon="5.23993">
        <ele>273.15</ele>
        <time>2019-05-27T09:58:20Z</time>
      </trkpt>
      <trkpt lat="43.86362" lon="5.23993">
        <ele>273.15</ele>
        <time>2019-05-27T09:58:49Z</time>
      </trkpt>
      <trkpt lat="43.86362" lon="5.23994">
        <ele>273.15</ele>
        <time>2019-05-27T09:59:32Z</time>
      </trkpt>
      <trkpt lat="43.8636" lon="5.23996">
        <ele>273.15</ele>
        <time>2019-05-27T10:00:08Z</time>
      </trkpt>
      <trkpt lat="43.86362" lon="5.23992">
        <ele>273.15</ele>
        <time>2019-05-27T10:00:43Z</time>
      </trkpt>
      <trkpt lat="43.86361" lon="5.23993">
        <ele>273.15</ele>
        <time>2019-05-27T10:01:17Z</time>
      </trkpt>
      <trkpt lat="43.86362" lon="5.23994">
        <ele>273.15</ele>
        <time>2019-05-27T10:01:51Z</time>
      </trkpt>
      <trkpt lat="43.86361" lon="5.23996">
        <ele>273.15</ele>
        <time>2019-05-27T10:02:29Z</time>
      </trkpt>
      <trkpt lat="43.86361" lon="5.23997">
        <ele>273.15</ele>
        <time>2019-05-27T10:03:03Z</time>
      </trkpt>
      <trkpt lat="43.86361" lon="5.23995">
        <ele>273.15</ele>
        <time>2019-05-27T10:03:37Z</time>
      </trkpt>
      <trkpt lat="43.86359" lon="5.23996">
        <ele>273.15</ele>
        <time>2019-05-27T10:04:16Z</time>
      </trkpt>
      <trkpt lat="43.8636" lon="5.23995">
        <ele>273.15</ele>
        <time>2019-05-27T10:04:51Z</time>
      </trkpt>
      <trkpt lat="43.86361" lon="5.23994">
        <ele>273.15</ele>
        <time>2019-05-27T10:05:29Z</time>
      </trkpt>
      <trkpt lat="43.86363" lon="5.23991">
        <ele>273.15</ele>
        <time>2019-05-27T10:06:03Z</time>
      </trkpt>
      <trkpt lat="43.86362" lon="5.23992">
        <ele>273.15</ele>
        <time>2019-05-27T10:06:36Z</time>
      </trkpt>
      <trkpt lat="43.86367" lon="5.23985">
        <ele>273.15</ele>
        <time>2019-05-27T10:07:10Z</time>
      </trkpt>
      <trkpt lat="43.86366" lon="5.23986">
        <ele>273.15</ele>
        <time>2019-05-27T10:07:43Z</time>
      </trkpt>
      <trkpt lat="43.86368" lon="5.23984">
        <ele>273.15</ele>
        <time>2019-05-27T10:08:18Z</time>
      </trkpt>
      <trkpt lat="43.86366" lon="5.23988">
        <ele>273.15</ele>
        <time>2019-05-27T10:08:52Z</time>
      </trkpt>
      <trkpt lat="43.86362" lon="5.23993">
        <ele>273.15</ele>
        <time>2019-05-27T10:09:29Z</time>
      </trkpt>
      <trkpt lat="43.8636" lon="5.23995">
        <ele>273.15</ele>
        <time>2019-05-27T10:10:11Z</time>
      </trkpt>
      <trkpt lat="43.86361" lon="5.23995">
        <ele>273.15</ele>
        <time>2019-05-27T10:10:49Z</time>
      </trkpt>
      <trkpt lat="43.86363" lon="5.23992">
        <ele>273.15</ele>
        <time>2019-05-27T10:11:29Z</time>
      </trkpt>
      <trkpt lat="43.86363" lon="5.2399">
        <ele>273.15</ele>
        <time>2019-05-27T10:12:07Z</time>
      </trkpt>
      <trkpt lat="43.86364" lon="5.2399">
        <ele>273.15</ele>
        <time>2019-05-27T10:12:44Z</time>
      </trkpt>
      <trkpt lat="43.86363" lon="5.23989">
        <ele>273.15</ele>
        <time>2019-05-27T10:13:20Z</time>
      </trkpt>
      <trkpt lat="43.86364" lon="5.23988">
        <ele>273.15</ele>
        <time>2019-05-27T10:13:54Z</time>
      </trkpt>
      <trkpt lat="43.86364" lon="5.23989">
        <ele>273.15</ele>
        <time>2019-05-27T10:14:28Z</time>
      </trkpt>
      <trkpt lat="43.86363" lon="5.2399">
        <ele>273.15</ele>
        <time>2019-05-27T10:15:05Z</time>
      </trkpt>
      <trkpt lat="43.86363" lon="5.23989">
        <ele>273.15</ele>
        <time>2019-05-27T10:15:43Z</time>
      </trkpt>
      <trkpt lat="43.86363" lon="5.23992">
        <ele>273.15</ele>
        <time>2019-05-27T10:16:16Z</time>
      </trkpt>
      <trkpt lat="43.86361" lon="5.23993">
        <ele>273.15</ele>
        <time>2019-05-27T10:16:50Z</time>
      </trkpt>
      <trkpt lat="43.8636" lon="5.23992">
        <ele>273.15</ele>
        <time>2019-05-27T10:17:27Z</time>
      </trkpt>
      <trkpt lat="43.86361" lon="5.23994">
        <ele>273.15</ele>
        <time>2019-05-27T10:18:03Z</time>
      </trkpt>
      <trkpt lat="43.86359" lon="5.23996">
        <ele>273.15</ele>
        <time>2019-05-27T10:18:34Z</time>
      </trkpt>
      <trkpt lat="43.86359" lon="5.23994">
        <ele>273.15</ele>
        <time>2019-05-27T10:19:09Z</time>
      </trkpt>
      <trkpt lat="43.8636" lon="5.23994">
        <ele>273.15</ele>
        <time>2019-05-27T10:19:40Z</time>
      </trkpt>
      <trkpt lat="43.86361" lon="5.23993">
        <ele>273.15</ele>
        <time>2019-05-27T10:20:11Z</time>
      </trkpt>
      <trkpt lat="43.86361" lon="5.23995">
        <ele>273.15</ele>
        <time>2019-05-27T10:20:44Z</time>
      </trkpt>
      <trkpt lat="43.8636" lon="5.23998">
        <ele>273.15</ele>
        <time>2019-05-27T10:21:17Z</time>
      </trkpt>
      <trkpt lat="43.8636" lon="5.23997">
        <ele>273.15</ele>
        <time>2019-05-27T10:21:48Z</time>
      </trkpt>
      <trkpt lat="43.86359" lon="5.23997">
        <ele>273.15</ele>
        <time>2019-05-27T10:23:50Z</time>
      </trkpt>
      <trkpt lat="43.8636" lon="5.23995">
        <ele>273.15</ele>
        <time>2019-05-27T10:25:19Z</time>
      </trkpt>
      <trkpt lat="43.86359" lon="5.23995">
        <ele>273.15</ele>
        <time>2019-05-27T10:25:59Z</time>
      </trkpt>
      <trkpt lat="43.86358" lon="5.23995">
        <ele>273.15</ele>
        <time>2019-05-27T10:26:41Z</time>
      </trkpt>
      <trkpt lat="43.86358" lon="5.23994">
        <ele>273.15</ele>
        <time>2019-05-27T10:27:51Z</time>
      </trkpt>
      <trkpt lat="43.86361" lon="5.23991">
        <ele>273.15</ele>
        <time>2019-05-27T10:28:39Z</time>
      </trkpt>
      <trkpt lat="43.86361" lon="5.23994">
        <ele>273.15</ele>
        <time>2019-05-27T10:29:09Z</time>
      </trkpt>
      <trkpt lat="43.86356" lon="5.23997">
        <ele>273.15</ele>
        <time>2019-05-27T10:29:45Z</time>
      </trkpt>
      <trkpt lat="43.86358" lon="5.23996">
        <ele>273.15</ele>
        <time>2019-05-27T10:30:19Z</time>
      </trkpt>
      <trkpt lat="43.86359" lon="5.23996">
        <ele>273.15</ele>
        <time>2019-05-27T10:31:01Z</time>
      </trkpt>
      <trkpt lat="43.86359" lon="5.23996">
        <ele>273.15</ele>
        <time>2019-05-27T10:31:44Z</time>
      </trkpt>
      <trkpt lat="43.8636" lon="5.23995">
        <ele>273.15</ele>
        <time>2019-05-27T10:32:20Z</time>
      </trkpt>
      <trkpt lat="43.86361" lon="5.23993">
        <ele>273.15</ele>
        <time>2019-05-27T10:32:46Z</time>
      </trkpt>
      <trkpt lat="43.86362" lon="5.23991">
        <ele>273.15</ele>
        <time>2019-05-27T10:33:23Z</time>
      </trkpt>
      <trkpt lat="43.86362" lon="5.23991">
        <ele>273.15</ele>
        <time>2019-05-27T10:34:02Z</time>
      </trkpt>
      <trkpt lat="43.86363" lon="5.23991">
        <ele>273.15</ele>
        <time>2019-05-27T10:34:39Z</time>
      </trkpt>
      <trkpt lat="43.86362" lon="5.23994">
        <ele>273.15</ele>
        <time>2019-05-27T10:35:16Z</time>
      </trkpt>
      <trkpt lat="43.86362" lon="5.23994">
        <ele>273.15</ele>
        <time>2019-05-27T10:35:50Z</time>
      </trkpt>
      <trkpt lat="43.86362" lon="5.23992">
        <ele>273.15</ele>
        <time>2019-05-27T10:36:22Z</time>
      </trkpt>
      <trkpt lat="43.86362" lon="5.23991">
        <ele>273.15</ele>
        <time>2019-05-27T10:36:51Z</time>
      </trkpt>
      <trkpt lat="43.86362" lon="5.23991">
        <ele>273.15</ele>
        <time>2019-05-27T10:37:21Z</time>
      </trkpt>
      <trkpt lat="43.86361" lon="5.23995">
        <ele>273.15</ele>
        <time>2019-05-27T10:37:55Z</time>
      </trkpt>
      <trkpt lat="43.8636" lon="5.23995">
        <ele>273.15</ele>
        <time>2019-05-27T10:38:32Z</time>
      </trkpt>
      <trkpt lat="43.8636" lon="5.23995">
        <ele>273.15</ele>
        <time>2019-05-27T10:39:10Z</time>
      </trkpt>
      <trkpt lat="43.86361" lon="5.23993">
        <ele>273.15</ele>
        <time>2019-05-27T10:39:45Z</time>
      </trkpt>
      <trkpt lat="43.86364" lon="5.23992">
        <ele>273.15</ele>
        <time>2019-05-27T10:40:25Z</time>
      </trkpt>
      <trkpt lat="43.86363" lon="5.23993">
        <ele>273.15</ele>
        <time>2019-05-27T10:41:02Z</time>
      </trkpt>
      <trkpt lat="43.8636" lon="5.23995">
        <ele>273.15</ele>
        <time>2019-05-27T10:41:37Z</time>
      </trkpt>
      <trkpt lat="43.86359" lon="5.23996">
        <ele>273.15</ele>
        <time>2019-05-27T10:42:27Z</time>
      </trkpt>
      <trkpt lat="43.86359" lon="5.23995">
        <ele>273.15</ele>
        <time>2019-05-27T10:42:47Z</time>
      </trkpt>
      <trkpt lat="43.86361" lon="5.23994">
        <ele>273.15</ele>
        <time>2019-05-27T10:43:09Z</time>
      </trkpt>
      <trkpt lat="43.86361" lon="5.23994">
        <ele>273.15</ele>
        <time>2019-05-27T10:43:40Z</time>
      </trkpt>
      <trkpt lat="43.86362" lon="5.23999">
        <ele>273.15</ele>
        <time>2019-05-27T10:44:07Z</time>
      </trkpt>
      <trkpt lat="43.8637" lon="5.24005">
        <ele>273.15</ele>
        <time>2019-05-27T10:44:27Z</time>
      </trkpt>
      <trkpt lat="43.86373" lon="5.24005">
        <ele>273.15</ele>
        <time>2019-05-27T10:44:53Z</time>
      </trkpt>
      <trkpt lat="43.86373" lon="5.24005">
        <ele>273.15</ele>
        <time>2019-05-27T10:45:23Z</time>
      </trkpt>
      <trkpt lat="43.86373" lon="5.24004">
        <ele>273.15</ele>
        <time>2019-05-27T10:45:53Z</time>
      </trkpt>
      <trkpt lat="43.86373" lon="5.24003">
        <ele>273.15</ele>
        <time>2019-05-27T10:46:19Z</time>
      </trkpt>
      <trkpt lat="43.86373" lon="5.24004">
        <ele>273.15</ele>
        <time>2019-05-27T10:46:39Z</time>
      </trkpt>
      <trkpt lat="43.86373" lon="5.24006">
        <ele>273.15</ele>
        <time>2019-05-27T10:47:11Z</time>
      </trkpt>
      <trkpt lat="43.86373" lon="5.24008">
        <ele>273.15</ele>
        <time>2019-05-27T10:47:43Z</time>
      </trkpt>
      <trkpt lat="43.86374" lon="5.24006">
        <ele>273.15</ele>
        <time>2019-05-27T10:48:13Z</time>
      </trkpt>
      <trkpt lat="43.86373" lon="5.24004">
        <ele>273.15</ele>
        <time>2019-05-27T10:48:46Z</time>
      </trkpt>
      <trkpt lat="43.86372" lon="5.24005">
        <ele>273.15</ele>
        <time>2019-05-27T10:49:17Z</time>
      </trkpt>
      <trkpt lat="43.86375" lon="5.24006">
        <ele>273.15</ele>
        <time>2019-05-27T10:49:42Z</time>
      </trkpt>
      <trkpt lat="43.86385" lon="5.23994">
        <ele>276.04</ele>
        <time>2019-05-27T10:49:56Z</time>
      </trkpt>
      <trkpt lat="43.86393" lon="5.24002">
        <ele>277.48</ele>
        <time>2019-05-27T10:50:12Z</time>
      </trkpt>
      <trkpt lat="43.86395" lon="5.24005">
        <ele>277.48</ele>
        <time>2019-05-27T10:50:15Z</time>
      </trkpt>
      <trkpt lat="43.86403" lon="5.24015">
        <ele>277</ele>
        <time>2019-05-27T10:50:34Z</time>
      </trkpt>
      <trkpt lat="43.86415" lon="5.24007">
        <ele>276.04</ele>
        <time>2019-05-27T10:50:52Z</time>
      </trkpt>
      <trkpt lat="43.86424" lon="5.24001">
        <ele>272.67</ele>
        <time>2019-05-27T10:51:07Z</time>
      </trkpt>
      <trkpt lat="43.86424" lon="5.23996">
        <ele>269.79</ele>
        <time>2019-05-27T10:51:20Z</time>
      </trkpt>
      <trkpt lat="43.8643" lon="5.23987">
        <ele>266.42</ele>
        <time>2019-05-27T10:51:36Z</time>
      </trkpt>
      <trkpt lat="43.86429" lon="5.23988">
        <ele>264.98</ele>
        <time>2019-05-27T10:51:44Z</time>
      </trkpt>
      <trkpt lat="43.86434" lon="5.23989">
        <ele>263.54</ele>
        <time>2019-05-27T10:51:57Z</time>
      </trkpt>
      <trkpt lat="43.86453" lon="5.23987">
        <ele>263.06</ele>
        <time>2019-05-27T10:52:17Z</time>
      </trkpt>
      <trkpt lat="43.86462" lon="5.23974">
        <ele>260.17</ele>
        <time>2019-05-27T10:52:38Z</time>
      </trkpt>
      <trkpt lat="43.86474" lon="5.23969">
        <ele>258.25</ele>
        <time>2019-05-27T10:52:58Z</time>
      </trkpt>
      <trkpt lat="43.86479" lon="5.23961">
        <ele>256.33</ele>
        <time>2019-05-27T10:53:17Z</time>
      </trkpt>
      <trkpt lat="43.86478" lon="5.23954">
        <ele>254.41</ele>
        <time>2019-05-27T10:53:31Z</time>
      </trkpt>
      <trkpt lat="43.86474" lon="5.2394">
        <ele>253.93</ele>
        <time>2019-05-27T10:53:48Z</time>
      </trkpt>
      <trkpt lat="43.8646" lon="5.23922">
        <ele>251.52</ele>
        <time>2019-05-27T10:54:13Z</time>
      </trkpt>
      <trkpt lat="43.86458" lon="5.23904">
        <ele>249.6</ele>
        <time>2019-05-27T10:54:31Z</time>
      </trkpt>
      <trkpt lat="43.86457" lon="5.23884">
        <ele>247.2</ele>
        <time>2019-05-27T10:54:54Z</time>
      </trkpt>
      <trkpt lat="43.86457" lon="5.23877">
        <ele>247.2</ele>
        <time>2019-05-27T10:54:59Z</time>
      </trkpt>
      <trkpt lat="43.86464" lon="5.23855">
        <ele>246.23</ele>
        <time>2019-05-27T10:55:17Z</time>
      </trkpt>
      <trkpt lat="43.86471" lon="5.2385">
        <ele>245.27</ele>
        <time>2019-05-27T10:55:24Z</time>
      </trkpt>
      <trkpt lat="43.86482" lon="5.23834">
        <ele>242.39</ele>
        <time>2019-05-27T10:55:42Z</time>
      </trkpt>
      <trkpt lat="43.8649" lon="5.23811">
        <ele>239.51</ele>
        <time>2019-05-27T10:56:03Z</time>
      </trkpt>
      <trkpt lat="43.86502" lon="5.23791">
        <ele>236.62</ele>
        <time>2019-05-27T10:56:26Z</time>
      </trkpt>
      <trkpt lat="43.86507" lon="5.23775">
        <ele>235.18</ele>
        <time>2019-05-27T10:56:40Z</time>
      </trkpt>
      <trkpt lat="43.8651" lon="5.2375">
        <ele>234.22</ele>
        <time>2019-05-27T10:56:58Z</time>
      </trkpt>
      <trkpt lat="43.8651" lon="5.23748">
        <ele>234.22</ele>
        <time>2019-05-27T10:57:00Z</time>
      </trkpt>
      <trkpt lat="43.8652" lon="5.23726">
        <ele>232.3</ele>
        <time>2019-05-27T10:57:18Z</time>
      </trkpt>
      <trkpt lat="43.86532" lon="5.2371">
        <ele>232.3</ele>
        <time>2019-05-27T10:57:33Z</time>
      </trkpt>
      <trkpt lat="43.86544" lon="5.23687">
        <ele>230.37</ele>
        <time>2019-05-27T10:57:55Z</time>
      </trkpt>
      <trkpt lat="43.8654" lon="5.23679">
        <ele>229.89</ele>
        <time>2019-05-27T10:58:02Z</time>
      </trkpt>
      <trkpt lat="43.86538" lon="5.23677">
        <ele>229.41</ele>
        <time>2019-05-27T10:58:04Z</time>
      </trkpt>
      <trkpt lat="43.8653" lon="5.23658">
        <ele>227.01</ele>
        <time>2019-05-27T10:58:20Z</time>
      </trkpt>
      <trkpt lat="43.8652" lon="5.23639">
        <ele>225.09</ele>
        <time>2019-05-27T10:58:39Z</time>
      </trkpt>
      <trkpt lat="43.86521" lon="5.2364">
        <ele>224.61</ele>
        <time>2019-05-27T10:59:09Z</time>
      </trkpt>
      <trkpt lat="43.86524" lon="5.23639">
        <ele>224.12</ele>
        <time>2019-05-27T10:59:36Z</time>
      </trkpt>
      <trkpt lat="43.86522" lon="5.23631">
        <ele>224.12</ele>
        <time>2019-05-27T11:00:09Z</time>
      </trkpt>
      <trkpt lat="43.86523" lon="5.23627">
        <ele>223.64</ele>
        <time>2019-05-27T11:00:25Z</time>
      </trkpt>
      <trkpt lat="43.8652" lon="5.23644">
        <ele>224.61</ele>
        <time>2019-05-27T11:00:39Z</time>
      </trkpt>
      <trkpt lat="43.86531" lon="5.23666">
        <ele>227.49</ele>
        <time>2019-05-27T11:00:59Z</time>
      </trkpt>
      <trkpt lat="43.86539" lon="5.23688">
        <ele>230.37</ele>
        <time>2019-05-27T11:01:20Z</time>
      </trkpt>
      <trkpt lat="43.86556" lon="5.23676">
        <ele>228.93</ele>
        <time>2019-05-27T11:01:40Z</time>
      </trkpt>
      <trkpt lat="43.86565" lon="5.23654">
        <ele>225.57</ele>
        <time>2019-05-27T11:02:01Z</time>
      </trkpt>
      <trkpt lat="43.86573" lon="5.23642">
        <ele>222.68</ele>
        <time>2019-05-27T11:02:18Z</time>
      </trkpt>
      <trkpt lat="43.86589" lon="5.23621">
        <ele>219.8</ele>
        <time>2019-05-27T11:02:43Z</time>
      </trkpt>
      <trkpt lat="43.86594" lon="5.23596">
        <ele>216.91</ele>
        <time>2019-05-27T11:03:05Z</time>
      </trkpt>
      <trkpt lat="43.86607" lon="5.23576">
        <ele>214.51</ele>
        <time>2019-05-27T11:03:26Z</time>
      </trkpt>
      <trkpt lat="43.8661" lon="5.23575">
        <ele>211.63</ele>
        <time>2019-05-27T11:03:34Z</time>
      </trkpt>
      <trkpt lat="43.86623" lon="5.23577">
        <ele>209.22</ele>
        <time>2019-05-27T11:03:55Z</time>
      </trkpt>
      <trkpt lat="43.86632" lon="5.23567">
        <ele>206.34</ele>
        <time>2019-05-27T11:04:08Z</time>
      </trkpt>
      <trkpt lat="43.86644" lon="5.23558">
        <ele>204.9</ele>
        <time>2019-05-27T11:04:30Z</time>
      </trkpt>
      <trkpt lat="43.86648" lon="5.23557">
        <ele>204.42</ele>
        <time>2019-05-27T11:04:51Z</time>
      </trkpt>
      <trkpt lat="43.86645" lon="5.23559">
        <ele>204.9</ele>
        <time>2019-05-27T11:05:22Z</time>
      </trkpt>
      <trkpt lat="43.86653" lon="5.23557">
        <ele>203.94</ele>
        <time>2019-05-27T11:05:50Z</time>
      </trkpt>
      <trkpt lat="43.86663" lon="5.23543">
        <ele>201.53</ele>
        <time>2019-05-27T11:06:04Z</time>
      </trkpt>
      <trkpt lat="43.86666" lon="5.23534">
        <ele>200.09</ele>
        <time>2019-05-27T11:06:11Z</time>
      </trkpt>
      <trkpt lat="43.86671" lon="5.23523">
        <ele>199.13</ele>
        <time>2019-05-27T11:06:20Z</time>
      </trkpt>
      <trkpt lat="43.8668" lon="5.23504">
        <ele>195.77</ele>
        <time>2019-05-27T11:06:37Z</time>
      </trkpt>
      <trkpt lat="43.86694" lon="5.23486">
        <ele>192.88</ele>
        <time>2019-05-27T11:06:56Z</time>
      </trkpt>
      <trkpt lat="43.86706" lon="5.23468">
        <ele>190.48</ele>
        <time>2019-05-27T11:07:12Z</time>
      </trkpt>
      <trkpt lat="43.86715" lon="5.23451">
        <ele>188.08</ele>
        <time>2019-05-27T11:07:29Z</time>
      </trkpt>
      <trkpt lat="43.86723" lon="5.2343">
        <ele>184.71</ele>
        <time>2019-05-27T11:07:46Z</time>
      </trkpt>
      <trkpt lat="43.86732" lon="5.23403">
        <ele>181.83</ele>
        <time>2019-05-27T11:08:06Z</time>
      </trkpt>
      <trkpt lat="43.86735" lon="5.23381">
        <ele>178.94</ele>
        <time>2019-05-27T11:08:23Z</time>
      </trkpt>
      <trkpt lat="43.86739" lon="5.23347">
        <ele>177.02</ele>
        <time>2019-05-27T11:08:46Z</time>
      </trkpt>
      <trkpt lat="43.8674" lon="5.2332">
        <ele>175.58</ele>
        <time>2019-05-27T11:09:02Z</time>
      </trkpt>
      <trkpt lat="43.86742" lon="5.23286">
        <ele>175.58</ele>
        <time>2019-05-27T11:09:24Z</time>
      </trkpt>
      <trkpt lat="43.86745" lon="5.23261">
        <ele>174.14</ele>
        <time>2019-05-27T11:09:42Z</time>
      </trkpt>
      <trkpt lat="43.86749" lon="5.23238">
        <ele>171.73</ele>
        <time>2019-05-27T11:10:01Z</time>
      </trkpt>
      <trkpt lat="43.86751" lon="5.23214">
        <ele>170.77</ele>
        <time>2019-05-27T11:10:17Z</time>
      </trkpt>
      <trkpt lat="43.86755" lon="5.23192">
        <ele>170.29</ele>
        <time>2019-05-27T11:10:34Z</time>
      </trkpt>
      <trkpt lat="43.86761" lon="5.23162">
        <ele>169.33</ele>
        <time>2019-05-27T11:10:55Z</time>
      </trkpt>
      <trkpt lat="43.86772" lon="5.2314">
        <ele>168.37</ele>
        <time>2019-05-27T11:11:13Z</time>
      </trkpt>
      <trkpt lat="43.86778" lon="5.23118">
        <ele>168.37</ele>
        <time>2019-05-27T11:11:28Z</time>
      </trkpt>
      <trkpt lat="43.8678" lon="5.23108">
        <ele>169.33</ele>
        <time>2019-05-27T11:11:34Z</time>
      </trkpt>
      <trkpt lat="43.86779" lon="5.23092">
        <ele>170.77</ele>
        <time>2019-05-27T11:11:50Z</time>
      </trkpt>
      <trkpt lat="43.86777" lon="5.231">
        <ele>170.77</ele>
        <time>2019-05-27T11:11:57Z</time>
      </trkpt>
      <trkpt lat="43.86777" lon="5.23105">
        <ele>170.77</ele>
        <time>2019-05-27T11:12:00Z</time>
      </trkpt>
      <trkpt lat="43.86775" lon="5.23132">
        <ele>169.81</ele>
        <time>2019-05-27T11:12:16Z</time>
      </trkpt>
      <trkpt lat="43.86766" lon="5.23156">
        <ele>168.37</ele>
        <time>2019-05-27T11:12:35Z</time>
      </trkpt>
      <trkpt lat="43.86763" lon="5.23153">
        <ele>167.89</ele>
        <time>2019-05-27T11:12:40Z</time>
      </trkpt>
      <trkpt lat="43.86765" lon="5.23144">
        <ele>168.37</ele>
        <time>2019-05-27T11:12:46Z</time>
      </trkpt>
      <trkpt lat="43.86767" lon="5.23122">
        <ele>168.37</ele>
        <time>2019-05-27T11:13:04Z</time>
      </trkpt>
      <trkpt lat="43.86766" lon="5.23105">
        <ele>168.37</ele>
        <time>2019-05-27T11:13:17Z</time>
      </trkpt>
      <trkpt lat="43.86757" lon="5.23097">
        <ele>168.37</ele>
        <time>2019-05-27T11:13:32Z</time>
      </trkpt>
      <trkpt lat="43.86744" lon="5.2309">
        <ele>167.89</ele>
        <time>2019-05-27T11:13:44Z</time>
      </trkpt>
      <trkpt lat="43.86738" lon="5.23083">
        <ele>166.93</ele>
        <time>2019-05-27T11:13:58Z</time>
      </trkpt>
      <trkpt lat="43.86735" lon="5.23079">
        <ele>166.45</ele>
        <time>2019-05-27T11:14:02Z</time>
      </trkpt>
      <trkpt lat="43.86735" lon="5.2308">
        <ele>166.93</ele>
        <time>2019-05-27T11:14:31Z</time>
      </trkpt>
      <trkpt lat="43.86729" lon="5.23075">
        <ele>167.41</ele>
        <time>2019-05-27T11:14:48Z</time>
      </trkpt>
      <trkpt lat="43.86728" lon="5.23079">
        <ele>167.41</ele>
        <time>2019-05-27T11:15:19Z</time>
      </trkpt>
      <trkpt lat="43.86733" lon="5.23078">
        <ele>167.89</ele>
        <time>2019-05-27T11:15:46Z</time>
      </trkpt>
      <trkpt lat="43.86722" lon="5.23074">
        <ele>167.41</ele>
        <time>2019-05-27T11:16:14Z</time>
      </trkpt>
      <trkpt lat="43.86716" lon="5.23063">
        <ele>167.41</ele>
        <time>2019-05-27T11:16:28Z</time>
      </trkpt>
      <trkpt lat="43.8671" lon="5.23051">
        <ele>167.41</ele>
        <time>2019-05-27T11:16:48Z</time>
      </trkpt>
      <trkpt lat="43.86709" lon="5.23046">
        <ele>176.54</ele>
        <time>2019-05-27T11:16:56Z</time>
      </trkpt>
      <trkpt lat="43.86708" lon="5.23046">
        <ele>177.02</ele>
        <time>2019-05-27T11:16:57Z</time>
      </trkpt>
      <trkpt lat="43.86704" lon="5.23039">
        <ele>177.98</ele>
        <time>2019-05-27T11:17:07Z</time>
      </trkpt>
      <trkpt lat="43.86698" lon="5.23027">
        <ele>180.87</ele>
        <time>2019-05-27T11:17:21Z</time>
      </trkpt>
      <trkpt lat="43.86694" lon="5.23016">
        <ele>184.23</ele>
        <time>2019-05-27T11:17:38Z</time>
      </trkpt>
      <trkpt lat="43.8669" lon="5.23007">
        <ele>187.59</ele>
        <time>2019-05-27T11:17:54Z</time>
      </trkpt>
      <trkpt lat="43.86689" lon="5.22998">
        <ele>190.48</ele>
        <time>2019-05-27T11:18:12Z</time>
      </trkpt>
      <trkpt lat="43.86686" lon="5.22991">
        <ele>193.36</ele>
        <time>2019-05-27T11:18:28Z</time>
      </trkpt>
      <trkpt lat="43.86682" lon="5.22983">
        <ele>194.8</ele>
        <time>2019-05-27T11:18:52Z</time>
      </trkpt>
      <trkpt lat="43.8668" lon="5.22985">
        <ele>194.8</ele>
        <time>2019-05-27T11:19:20Z</time>
      </trkpt>
      <trkpt lat="43.86679" lon="5.2299">
        <ele>194.8</ele>
        <time>2019-05-27T11:19:50Z</time>
      </trkpt>
      <trkpt lat="43.86681" lon="5.22984">
        <ele>194.8</ele>
        <time>2019-05-27T11:20:15Z</time>
      </trkpt>
      <trkpt lat="43.86681" lon="5.22977">
        <ele>195.77</ele>
        <time>2019-05-27T11:20:45Z</time>
      </trkpt>
      <trkpt lat="43.86683" lon="5.22986">
        <ele>195.28</ele>
        <time>2019-05-27T11:21:12Z</time>
      </trkpt>
      <trkpt lat="43.86685" lon="5.22982">
        <ele>195.28</ele>
        <time>2019-05-27T11:21:34Z</time>
      </trkpt>
      <trkpt lat="43.86698" lon="5.22976">
        <ele>195.28</ele>
        <time>2019-05-27T11:21:52Z</time>
      </trkpt>
      <trkpt lat="43.86705" lon="5.22975">
        <ele>199.13</ele>
        <time>2019-05-27T11:22:01Z</time>
      </trkpt>
      <trkpt lat="43.86705" lon="5.22975">
        <ele>199.13</ele>
        <time>2019-05-27T11:22:02Z</time>
      </trkpt>
      <trkpt lat="43.86725" lon="5.22972">
        <ele>201.53</ele>
        <time>2019-05-27T11:22:25Z</time>
      </trkpt>
      <trkpt lat="43.86743" lon="5.2297">
        <ele>204.42</ele>
        <time>2019-05-27T11:22:47Z</time>
      </trkpt>
      <trkpt lat="43.86754" lon="5.22955">
        <ele>206.82</ele>
        <time>2019-05-27T11:23:06Z</time>
      </trkpt>
      <trkpt lat="43.8677" lon="5.22949">
        <ele>209.7</ele>
        <time>2019-05-27T11:23:25Z</time>
      </trkpt>
      <trkpt lat="43.86778" lon="5.22951">
        <ele>210.67</ele>
        <time>2019-05-27T11:23:34Z</time>
      </trkpt>
      <trkpt lat="43.86794" lon="5.22951">
        <ele>211.63</ele>
        <time>2019-05-27T11:23:51Z</time>
      </trkpt>
      <trkpt lat="43.86796" lon="5.22948">
        <ele>211.63</ele>
        <time>2019-05-27T11:23:55Z</time>
      </trkpt>
      <trkpt lat="43.86798" lon="5.22943">
        <ele>212.59</ele>
        <time>2019-05-27T11:24:14Z</time>
      </trkpt>
      <trkpt lat="43.86799" lon="5.2294">
        <ele>212.59</ele>
        <time>2019-05-27T11:24:17Z</time>
      </trkpt>
      <trkpt lat="43.86807" lon="5.22931">
        <ele>214.03</ele>
        <time>2019-05-27T11:24:35Z</time>
      </trkpt>
      <trkpt lat="43.86807" lon="5.22933">
        <ele>214.03</ele>
        <time>2019-05-27T11:24:36Z</time>
      </trkpt>
      <trkpt lat="43.86802" lon="5.22941">
        <ele>213.07</ele>
        <time>2019-05-27T11:24:43Z</time>
      </trkpt>
      <trkpt lat="43.86802" lon="5.22945">
        <ele>212.59</ele>
        <time>2019-05-27T11:25:10Z</time>
      </trkpt>
      <trkpt lat="43.86813" lon="5.22945">
        <ele>212.59</ele>
        <time>2019-05-27T11:25:30Z</time>
      </trkpt>
      <trkpt lat="43.86819" lon="5.22942">
        <ele>210.19</ele>
        <time>2019-05-27T11:25:35Z</time>
      </trkpt>
      <trkpt lat="43.86831" lon="5.22938">
        <ele>209.22</ele>
        <time>2019-05-27T11:25:46Z</time>
      </trkpt>
      <trkpt lat="43.8685" lon="5.22934">
        <ele>208.26</ele>
        <time>2019-05-27T11:26:03Z</time>
      </trkpt>
      <trkpt lat="43.86864" lon="5.22927">
        <ele>208.74</ele>
        <time>2019-05-27T11:26:16Z</time>
      </trkpt>
      <trkpt lat="43.8688" lon="5.22929">
        <ele>208.74</ele>
        <time>2019-05-27T11:26:30Z</time>
      </trkpt>
      <trkpt lat="43.86886" lon="5.2293">
        <ele>208.74</ele>
        <time>2019-05-27T11:26:34Z</time>
      </trkpt>
      <trkpt lat="43.86909" lon="5.22933">
        <ele>206.34</ele>
        <time>2019-05-27T11:26:54Z</time>
      </trkpt>
      <trkpt lat="43.86926" lon="5.22931">
        <ele>203.46</ele>
        <time>2019-05-27T11:27:12Z</time>
      </trkpt>
      <trkpt lat="43.86935" lon="5.22938">
        <ele>202.01</ele>
        <time>2019-05-27T11:27:22Z</time>
      </trkpt>
      <trkpt lat="43.86952" lon="5.22949">
        <ele>198.65</ele>
        <time>2019-05-27T11:27:41Z</time>
      </trkpt>
      <trkpt lat="43.86968" lon="5.22958">
        <ele>197.21</ele>
        <time>2019-05-27T11:27:57Z</time>
      </trkpt>
      <trkpt lat="43.8698" lon="5.22974">
        <ele>193.84</ele>
        <time>2019-05-27T11:28:15Z</time>
      </trkpt>
      <trkpt lat="43.86991" lon="5.22996">
        <ele>190.96</ele>
        <time>2019-05-27T11:28:36Z</time>
      </trkpt>
      <trkpt lat="43.86997" lon="5.23007">
        <ele>190</ele>
        <time>2019-05-27T11:28:55Z</time>
      </trkpt>
      <trkpt lat="43.86999" lon="5.23007">
        <ele>190</ele>
        <time>2019-05-27T11:29:26Z</time>
      </trkpt>
      <trkpt lat="43.87004" lon="5.23015">
        <ele>190</ele>
        <time>2019-05-27T11:29:51Z</time>
      </trkpt>
      <trkpt lat="43.87009" lon="5.23035">
        <ele>189.52</ele>
        <time>2019-05-27T11:30:05Z</time>
      </trkpt>
      <trkpt lat="43.87021" lon="5.23047">
        <ele>188.08</ele>
        <time>2019-05-27T11:30:22Z</time>
      </trkpt>
      <trkpt lat="43.87029" lon="5.2305">
        <ele>187.11</ele>
        <time>2019-05-27T11:30:30Z</time>
      </trkpt>
      <trkpt lat="43.87049" lon="5.23053">
        <ele>184.23</ele>
        <time>2019-05-27T11:30:49Z</time>
      </trkpt>
      <trkpt lat="43.87072" lon="5.23059">
        <ele>182.79</ele>
        <time>2019-05-27T11:31:10Z</time>
      </trkpt>
      <trkpt lat="43.87088" lon="5.23064">
        <ele>181.83</ele>
        <time>2019-05-27T11:31:27Z</time>
      </trkpt>
      <trkpt lat="43.87111" lon="5.23063">
        <ele>179.9</ele>
        <time>2019-05-27T11:31:47Z</time>
      </trkpt>
      <trkpt lat="43.8712" lon="5.23064">
        <ele>179.42</ele>
        <time>2019-05-27T11:32:06Z</time>
      </trkpt>
      <trkpt lat="43.87122" lon="5.23061">
        <ele>178.94</ele>
        <time>2019-05-27T11:32:29Z</time>
      </trkpt>
      <trkpt lat="43.87123" lon="5.23061">
        <ele>179.42</ele>
        <time>2019-05-27T11:32:56Z</time>
      </trkpt>
      <trkpt lat="43.87124" lon="5.2306">
        <ele>178.94</ele>
        <time>2019-05-27T11:33:20Z</time>
      </trkpt>
      <trkpt lat="43.87133" lon="5.23055">
        <ele>178.94</ele>
        <time>2019-05-27T11:33:42Z</time>
      </trkpt>
      <trkpt lat="43.8714" lon="5.23049">
        <ele>179.9</ele>
        <time>2019-05-27T11:33:51Z</time>
      </trkpt>
      <trkpt lat="43.8716" lon="5.23035">
        <ele>180.38</ele>
        <time>2019-05-27T11:34:11Z</time>
      </trkpt>
      <trkpt lat="43.87163" lon="5.23032">
        <ele>180.38</ele>
        <time>2019-05-27T11:34:14Z</time>
      </trkpt>
      <trkpt lat="43.87167" lon="5.23026">
        <ele>180.38</ele>
        <time>2019-05-27T11:34:18Z</time>
      </trkpt>
      <trkpt lat="43.87169" lon="5.23025">
        <ele>180.38</ele>
        <time>2019-05-27T11:34:20Z</time>
      </trkpt>
      <trkpt lat="43.87185" lon="5.23011">
        <ele>180.38</ele>
        <time>2019-05-27T11:34:35Z</time>
      </trkpt>
      <trkpt lat="43.87209" lon="5.23007">
        <ele>180.38</ele>
        <time>2019-05-27T11:34:52Z</time>
      </trkpt>
      <trkpt lat="43.87223" lon="5.23004">
        <ele>180.87</ele>
        <time>2019-05-27T11:35:06Z</time>
      </trkpt>
      <trkpt lat="43.87239" lon="5.22983">
        <ele>181.83</ele>
        <time>2019-05-27T11:35:27Z</time>
      </trkpt>
      <trkpt lat="43.87256" lon="5.22969">
        <ele>183.75</ele>
        <time>2019-05-27T11:35:46Z</time>
      </trkpt>
      <trkpt lat="43.8728" lon="5.22957">
        <ele>185.19</ele>
        <time>2019-05-27T11:36:07Z</time>
      </trkpt>
      <trkpt lat="43.87302" lon="5.22953">
        <ele>186.15</ele>
        <time>2019-05-27T11:36:27Z</time>
      </trkpt>
      <trkpt lat="43.87319" lon="5.22939">
        <ele>186.63</ele>
        <time>2019-05-27T11:36:42Z</time>
      </trkpt>
      <trkpt lat="43.87338" lon="5.2292">
        <ele>187.11</ele>
        <time>2019-05-27T11:37:05Z</time>
      </trkpt>
      <trkpt lat="43.87354" lon="5.22907">
        <ele>186.63</ele>
        <time>2019-05-27T11:37:20Z</time>
      </trkpt>
      <trkpt lat="43.87368" lon="5.22898">
        <ele>187.11</ele>
        <time>2019-05-27T11:37:34Z</time>
      </trkpt>
      <trkpt lat="43.87379" lon="5.22895">
        <ele>186.63</ele>
        <time>2019-05-27T11:37:46Z</time>
      </trkpt>
      <trkpt lat="43.87399" lon="5.22887">
        <ele>186.63</ele>
        <time>2019-05-27T11:38:03Z</time>
      </trkpt>
      <trkpt lat="43.87421" lon="5.22879">
        <ele>186.15</ele>
        <time>2019-05-27T11:38:19Z</time>
      </trkpt>
      <trkpt lat="43.87439" lon="5.2287">
        <ele>186.63</ele>
        <time>2019-05-27T11:38:36Z</time>
      </trkpt>
      <trkpt lat="43.87455" lon="5.22863">
        <ele>186.63</ele>
        <time>2019-05-27T11:38:51Z</time>
      </trkpt>
      <trkpt lat="43.87473" lon="5.22854">
        <ele>186.63</ele>
        <time>2019-05-27T11:39:07Z</time>
      </trkpt>
      <trkpt lat="43.87476" lon="5.2285">
        <ele>186.63</ele>
        <time>2019-05-27T11:39:11Z</time>
      </trkpt>
      <trkpt lat="43.87481" lon="5.22832">
        <ele>186.63</ele>
        <time>2019-05-27T11:39:24Z</time>
      </trkpt>
      <trkpt lat="43.87485" lon="5.22827">
        <ele>187.11</ele>
        <time>2019-05-27T11:39:28Z</time>
      </trkpt>
      <trkpt lat="43.87491" lon="5.22817">
        <ele>187.59</ele>
        <time>2019-05-27T11:39:36Z</time>
      </trkpt>
      <trkpt lat="43.87511" lon="5.228">
        <ele>187.59</ele>
        <time>2019-05-27T11:39:55Z</time>
      </trkpt>
      <trkpt lat="43.87522" lon="5.22783">
        <ele>188.08</ele>
        <time>2019-05-27T11:40:09Z</time>
      </trkpt>
      <trkpt lat="43.87535" lon="5.22767">
        <ele>189.04</ele>
        <time>2019-05-27T11:40:26Z</time>
      </trkpt>
      <trkpt lat="43.87549" lon="5.22747">
        <ele>190</ele>
        <time>2019-05-27T11:40:44Z</time>
      </trkpt>
      <trkpt lat="43.87557" lon="5.22731">
        <ele>190</ele>
        <time>2019-05-27T11:40:58Z</time>
      </trkpt>
      <trkpt lat="43.87565" lon="5.2271">
        <ele>190.48</ele>
        <time>2019-05-27T11:41:13Z</time>
      </trkpt>
      <trkpt lat="43.87572" lon="5.22695">
        <ele>191.44</ele>
        <time>2019-05-27T11:41:29Z</time>
      </trkpt>
      <trkpt lat="43.87571" lon="5.22696">
        <ele>191.44</ele>
        <time>2019-05-27T11:42:00Z</time>
      </trkpt>
      <trkpt lat="43.87572" lon="5.22693">
        <ele>191.44</ele>
        <time>2019-05-27T11:42:32Z</time>
      </trkpt>
      <trkpt lat="43.87574" lon="5.22695">
        <ele>191.44</ele>
        <time>2019-05-27T11:42:56Z</time>
      </trkpt>
      <trkpt lat="43.87572" lon="5.22694">
        <ele>191.44</ele>
        <time>2019-05-27T11:43:22Z</time>
      </trkpt>
      <trkpt lat="43.8757" lon="5.22694">
        <ele>191.44</ele>
        <time>2019-05-27T11:43:48Z</time>
      </trkpt>
      <trkpt lat="43.87572" lon="5.22694">
        <ele>191.44</ele>
        <time>2019-05-27T11:44:22Z</time>
      </trkpt>
      <trkpt lat="43.87574" lon="5.22695">
        <ele>191.44</ele>
        <time>2019-05-27T11:44:55Z</time>
      </trkpt>
      <trkpt lat="43.87572" lon="5.22692">
        <ele>191.44</ele>
        <time>2019-05-27T11:45:22Z</time>
      </trkpt>
      <trkpt lat="43.87569" lon="5.22692">
        <ele>191.44</ele>
        <time>2019-05-27T11:45:50Z</time>
      </trkpt>
      <trkpt lat="43.87568" lon="5.22692">
        <ele>191.44</ele>
        <time>2019-05-27T11:46:18Z</time>
      </trkpt>
      <trkpt lat="43.8757" lon="5.22687">
        <ele>191.44</ele>
        <time>2019-05-27T11:46:52Z</time>
      </trkpt>
      <trkpt lat="43.87571" lon="5.22688">
        <ele>191.44</ele>
        <time>2019-05-27T11:47:26Z</time>
      </trkpt>
      <trkpt lat="43.87571" lon="5.2269">
        <ele>191.44</ele>
        <time>2019-05-27T11:47:58Z</time>
      </trkpt>
      <trkpt lat="43.87574" lon="5.2269">
        <ele>191.44</ele>
        <time>2019-05-27T11:48:25Z</time>
      </trkpt>
      <trkpt lat="43.8757" lon="5.22685">
        <ele>191.44</ele>
        <time>2019-05-27T11:48:55Z</time>
      </trkpt>
      <trkpt lat="43.87572" lon="5.22689">
        <ele>191.44</ele>
        <time>2019-05-27T11:49:23Z</time>
      </trkpt>
      <trkpt lat="43.87573" lon="5.2269">
        <ele>191.44</ele>
        <time>2019-05-27T11:49:55Z</time>
      </trkpt>
      <trkpt lat="43.87576" lon="5.22688">
        <ele>191.44</ele>
        <time>2019-05-27T11:50:29Z</time>
      </trkpt>
      <trkpt lat="43.8757" lon="5.2269">
        <ele>191.44</ele>
        <time>2019-05-27T11:51:02Z</time>
      </trkpt>
      <trkpt lat="43.8758" lon="5.2269">
        <ele>191.44</ele>
        <time>2019-05-27T11:51:27Z</time>
      </trkpt>
      <trkpt lat="43.87589" lon="5.2267">
        <ele>192.4</ele>
        <time>2019-05-27T11:51:45Z</time>
      </trkpt>
      <trkpt lat="43.87602" lon="5.22645">
        <ele>192.4</ele>
        <time>2019-05-27T11:52:04Z</time>
      </trkpt>
      <trkpt lat="43.87602" lon="5.22644">
        <ele>192.4</ele>
        <time>2019-05-27T11:52:05Z</time>
      </trkpt>
      <trkpt lat="43.87605" lon="5.22639">
        <ele>192.4</ele>
        <time>2019-05-27T11:52:09Z</time>
      </trkpt>
      <trkpt lat="43.87612" lon="5.22624">
        <ele>192.4</ele>
        <time>2019-05-27T11:52:21Z</time>
      </trkpt>
      <trkpt lat="43.87609" lon="5.22615">
        <ele>192.4</ele>
        <time>2019-05-27T11:52:27Z</time>
      </trkpt>
      <trkpt lat="43.87603" lon="5.22591">
        <ele>193.36</ele>
        <time>2019-05-27T11:52:45Z</time>
      </trkpt>
      <trkpt lat="43.87597" lon="5.22567">
        <ele>193.84</ele>
        <time>2019-05-27T11:53:02Z</time>
      </trkpt>
      <trkpt lat="43.87599" lon="5.22543">
        <ele>194.8</ele>
        <time>2019-05-27T11:53:17Z</time>
      </trkpt>
      <trkpt lat="43.876" lon="5.22517">
        <ele>195.77</ele>
        <time>2019-05-27T11:53:33Z</time>
      </trkpt>
      <trkpt lat="43.87606" lon="5.22489">
        <ele>196.73</ele>
        <time>2019-05-27T11:53:50Z</time>
      </trkpt>
      <trkpt lat="43.8761" lon="5.22472">
        <ele>196.73</ele>
        <time>2019-05-27T11:54:01Z</time>
      </trkpt>
      <trkpt lat="43.87617" lon="5.22447">
        <ele>197.21</ele>
        <time>2019-05-27T11:54:16Z</time>
      </trkpt>
      <trkpt lat="43.87623" lon="5.22428">
        <ele>198.65</ele>
        <time>2019-05-27T11:54:30Z</time>
      </trkpt>
      <trkpt lat="43.8763" lon="5.22408">
        <ele>199.13</ele>
        <time>2019-05-27T11:54:44Z</time>
      </trkpt>
      <trkpt lat="43.87633" lon="5.22399">
        <ele>199.61</ele>
        <time>2019-05-27T11:54:51Z</time>
      </trkpt>
      <trkpt lat="43.87638" lon="5.22385">
        <ele>200.57</ele>
        <time>2019-05-27T11:55:01Z</time>
      </trkpt>
      <trkpt lat="43.87649" lon="5.22357">
        <ele>201.05</ele>
        <time>2019-05-27T11:55:20Z</time>
      </trkpt>
      <trkpt lat="43.87658" lon="5.22335">
        <ele>201.53</ele>
        <time>2019-05-27T11:55:37Z</time>
      </trkpt>
      <trkpt lat="43.87659" lon="5.22331">
        <ele>202.01</ele>
        <time>2019-05-27T11:55:40Z</time>
      </trkpt>
      <trkpt lat="43.87667" lon="5.22303">
        <ele>202.98</ele>
        <time>2019-05-27T11:55:58Z</time>
      </trkpt>
      <trkpt lat="43.87668" lon="5.22275">
        <ele>204.42</ele>
        <time>2019-05-27T11:56:17Z</time>
      </trkpt>
      <trkpt lat="43.87667" lon="5.22246">
        <ele>204.42</ele>
        <time>2019-05-27T11:56:34Z</time>
      </trkpt>
      <trkpt lat="43.87662" lon="5.22225">
        <ele>204.9</ele>
        <time>2019-05-27T11:56:49Z</time>
      </trkpt>
      <trkpt lat="43.87656" lon="5.22198">
        <ele>205.38</ele>
        <time>2019-05-27T11:57:07Z</time>
      </trkpt>
      <trkpt lat="43.87652" lon="5.22169">
        <ele>205.38</ele>
        <time>2019-05-27T11:57:24Z</time>
      </trkpt>
      <trkpt lat="43.87652" lon="5.22165">
        <ele>205.38</ele>
        <time>2019-05-27T11:57:26Z</time>
      </trkpt>
      <trkpt lat="43.87649" lon="5.22129">
        <ele>205.86</ele>
        <time>2019-05-27T11:57:47Z</time>
      </trkpt>
      <trkpt lat="43.87648" lon="5.22124">
        <ele>206.34</ele>
        <time>2019-05-27T11:57:51Z</time>
      </trkpt>
      <trkpt lat="43.87647" lon="5.22099">
        <ele>206.82</ele>
        <time>2019-05-27T11:58:07Z</time>
      </trkpt>
      <trkpt lat="43.87652" lon="5.22071">
        <ele>206.82</ele>
        <time>2019-05-27T11:58:25Z</time>
      </trkpt>
      <trkpt lat="43.87662" lon="5.22039">
        <ele>207.3</ele>
        <time>2019-05-27T11:58:47Z</time>
      </trkpt>
      <trkpt lat="43.87666" lon="5.2203">
        <ele>207.78</ele>
        <time>2019-05-27T11:59:03Z</time>
      </trkpt>
      <trkpt lat="43.87666" lon="5.22026">
        <ele>207.78</ele>
        <time>2019-05-27T11:59:28Z</time>
      </trkpt>
      <trkpt lat="43.87668" lon="5.2203">
        <ele>207.78</ele>
        <time>2019-05-27T11:59:55Z</time>
      </trkpt>
      <trkpt lat="43.87664" lon="5.22031">
        <ele>207.78</ele>
        <time>2019-05-27T12:00:27Z</time>
      </trkpt>
      <trkpt lat="43.87659" lon="5.22031">
        <ele>207.78</ele>
        <time>2019-05-27T12:01:05Z</time>
      </trkpt>
      <trkpt lat="43.87664" lon="5.22031">
        <ele>207.78</ele>
        <time>2019-05-27T12:01:37Z</time>
      </trkpt>
      <trkpt lat="43.87665" lon="5.2203">
        <ele>207.78</ele>
        <time>2019-05-27T12:02:03Z</time>
      </trkpt>
      <trkpt lat="43.87667" lon="5.22029">
        <ele>208.74</ele>
        <time>2019-05-27T12:02:34Z</time>
      </trkpt>
      <trkpt lat="43.87668" lon="5.22029">
        <ele>208.74</ele>
        <time>2019-05-27T12:03:01Z</time>
      </trkpt>
      <trkpt lat="43.87665" lon="5.22029">
        <ele>208.74</ele>
        <time>2019-05-27T12:03:30Z</time>
      </trkpt>
      <trkpt lat="43.87671" lon="5.22024">
        <ele>208.74</ele>
        <time>2019-05-27T12:03:50Z</time>
      </trkpt>
      <trkpt lat="43.87685" lon="5.2201">
        <ele>207.78</ele>
        <time>2019-05-27T12:04:07Z</time>
      </trkpt>
      <trkpt lat="43.87706" lon="5.21992">
        <ele>209.22</ele>
        <time>2019-05-27T12:04:25Z</time>
      </trkpt>
      <trkpt lat="43.87719" lon="5.21975">
        <ele>208.74</ele>
        <time>2019-05-27T12:04:40Z</time>
      </trkpt>
      <trkpt lat="43.87735" lon="5.21957">
        <ele>210.19</ele>
        <time>2019-05-27T12:04:58Z</time>
      </trkpt>
      <trkpt lat="43.87756" lon="5.21937">
        <ele>211.15</ele>
        <time>2019-05-27T12:05:18Z</time>
      </trkpt>
      <trkpt lat="43.87773" lon="5.21918">
        <ele>211.15</ele>
        <time>2019-05-27T12:05:36Z</time>
      </trkpt>
      <trkpt lat="43.87785" lon="5.21896">
        <ele>212.59</ele>
        <time>2019-05-27T12:05:53Z</time>
      </trkpt>
      <trkpt lat="43.87796" lon="5.2187">
        <ele>213.55</ele>
        <time>2019-05-27T12:06:11Z</time>
      </trkpt>
      <trkpt lat="43.87805" lon="5.21847">
        <ele>214.51</ele>
        <time>2019-05-27T12:06:27Z</time>
      </trkpt>
      <trkpt lat="43.87817" lon="5.21825">
        <ele>214.99</ele>
        <time>2019-05-27T12:06:44Z</time>
      </trkpt>
      <trkpt lat="43.87826" lon="5.21796">
        <ele>215.47</ele>
        <time>2019-05-27T12:07:03Z</time>
      </trkpt>
      <trkpt lat="43.87838" lon="5.21767">
        <ele>216.43</ele>
        <time>2019-05-27T12:07:24Z</time>
      </trkpt>
      <trkpt lat="43.87849" lon="5.21742">
        <ele>216.43</ele>
        <time>2019-05-27T12:07:42Z</time>
      </trkpt>
      <trkpt lat="43.87861" lon="5.21717">
        <ele>217.88</ele>
        <time>2019-05-27T12:07:59Z</time>
      </trkpt>
      <trkpt lat="43.87872" lon="5.21689">
        <ele>218.84</ele>
        <time>2019-05-27T12:08:18Z</time>
      </trkpt>
      <trkpt lat="43.87882" lon="5.21661">
        <ele>220.28</ele>
        <time>2019-05-27T12:08:37Z</time>
      </trkpt>
      <trkpt lat="43.87896" lon="5.21632">
        <ele>221.24</ele>
        <time>2019-05-27T12:08:58Z</time>
      </trkpt>
      <trkpt lat="43.87912" lon="5.21603">
        <ele>223.16</ele>
        <time>2019-05-27T12:09:19Z</time>
      </trkpt>
      <trkpt lat="43.87919" lon="5.21577">
        <ele>223.16</ele>
        <time>2019-05-27T12:09:37Z</time>
      </trkpt>
      <trkpt lat="43.87933" lon="5.21552">
        <ele>225.09</ele>
        <time>2019-05-27T12:09:55Z</time>
      </trkpt>
      <trkpt lat="43.87941" lon="5.21529">
        <ele>225.57</ele>
        <time>2019-05-27T12:10:13Z</time>
      </trkpt>
      <trkpt lat="43.87945" lon="5.21503">
        <ele>227.97</ele>
        <time>2019-05-27T12:10:30Z</time>
      </trkpt>
      <trkpt lat="43.87947" lon="5.21495">
        <ele>227.97</ele>
        <time>2019-05-27T12:10:37Z</time>
      </trkpt>
      <trkpt lat="43.87948" lon="5.21489">
        <ele>227.97</ele>
        <time>2019-05-27T12:10:41Z</time>
      </trkpt>
      <trkpt lat="43.87954" lon="5.21465">
        <ele>229.89</ele>
        <time>2019-05-27T12:11:00Z</time>
      </trkpt>
      <trkpt lat="43.8797" lon="5.21457">
        <ele>230.37</ele>
        <time>2019-05-27T12:11:18Z</time>
      </trkpt>
      <trkpt lat="43.87978" lon="5.21458">
        <ele>231.33</ele>
        <time>2019-05-27T12:11:43Z</time>
      </trkpt>
      <trkpt lat="43.87972" lon="5.21451">
        <ele>230.85</ele>
        <time>2019-05-27T12:11:58Z</time>
      </trkpt>
      <trkpt lat="43.87972" lon="5.21452">
        <ele>230.85</ele>
        <time>2019-05-27T12:12:25Z</time>
      </trkpt>
      <trkpt lat="43.87972" lon="5.21453">
        <ele>230.37</ele>
        <time>2019-05-27T12:12:54Z</time>
      </trkpt>
      <trkpt lat="43.87972" lon="5.21451">
        <ele>230.85</ele>
        <time>2019-05-27T12:13:19Z</time>
      </trkpt>
      <trkpt lat="43.87972" lon="5.21452">
        <ele>230.85</ele>
        <time>2019-05-27T12:13:48Z</time>
      </trkpt>
      <trkpt lat="43.87972" lon="5.21454">
        <ele>231.33</ele>
        <time>2019-05-27T12:14:18Z</time>
      </trkpt>
      <trkpt lat="43.87973" lon="5.21454">
        <ele>230.85</ele>
        <time>2019-05-27T12:14:49Z</time>
      </trkpt>
      <trkpt lat="43.87972" lon="5.21451">
        <ele>231.33</ele>
        <time>2019-05-27T12:15:21Z</time>
      </trkpt>
      <trkpt lat="43.87969" lon="5.21449">
        <ele>231.33</ele>
        <time>2019-05-27T12:15:50Z</time>
      </trkpt>
      <trkpt lat="43.87969" lon="5.21451">
        <ele>231.33</ele>
        <time>2019-05-27T12:16:28Z</time>
      </trkpt>
      <trkpt lat="43.87972" lon="5.21454">
        <ele>231.33</ele>
        <time>2019-05-27T12:17:05Z</time>
      </trkpt>
      <trkpt lat="43.87972" lon="5.21454">
        <ele>231.33</ele>
        <time>2019-05-27T12:17:32Z</time>
      </trkpt>
      <trkpt lat="43.87971" lon="5.21453">
        <ele>231.33</ele>
        <time>2019-05-27T12:17:55Z</time>
      </trkpt>
      <trkpt lat="43.87971" lon="5.21453">
        <ele>231.33</ele>
        <time>2019-05-27T12:18:19Z</time>
      </trkpt>
      <trkpt lat="43.87969" lon="5.2145">
        <ele>231.33</ele>
        <time>2019-05-27T12:18:53Z</time>
      </trkpt>
      <trkpt lat="43.87967" lon="5.21449">
        <ele>231.33</ele>
        <time>2019-05-27T12:19:23Z</time>
      </trkpt>
      <trkpt lat="43.87967" lon="5.2145">
        <ele>231.33</ele>
        <time>2019-05-27T12:19:49Z</time>
      </trkpt>
      <trkpt lat="43.87964" lon="5.2145">
        <ele>231.33</ele>
        <time>2019-05-27T12:19:51Z</time>
      </trkpt>
      <trkpt lat="43.87956" lon="5.21448">
        <ele>230.85</ele>
        <time>2019-05-27T12:19:59Z</time>
      </trkpt>
      <trkpt lat="43.87945" lon="5.21421">
        <ele>231.33</ele>
        <time>2019-05-27T12:20:18Z</time>
      </trkpt>
      <trkpt lat="43.87939" lon="5.21404">
        <ele>232.3</ele>
        <time>2019-05-27T12:20:33Z</time>
      </trkpt>
      <trkpt lat="43.8794" lon="5.21383">
        <ele>232.78</ele>
        <time>2019-05-27T12:20:49Z</time>
      </trkpt>
      <trkpt lat="43.87943" lon="5.21358">
        <ele>234.22</ele>
        <time>2019-05-27T12:21:04Z</time>
      </trkpt>
      <trkpt lat="43.87944" lon="5.21353">
        <ele>234.22</ele>
        <time>2019-05-27T12:21:08Z</time>
      </trkpt>
      <trkpt lat="43.87948" lon="5.21343">
        <ele>234.7</ele>
        <time>2019-05-27T12:21:14Z</time>
      </trkpt>
      <trkpt lat="43.87949" lon="5.21339">
        <ele>235.18</ele>
        <time>2019-05-27T12:21:17Z</time>
      </trkpt>
      <trkpt lat="43.87955" lon="5.21328">
        <ele>236.14</ele>
        <time>2019-05-27T12:21:25Z</time>
      </trkpt>
      <trkpt lat="43.87959" lon="5.213">
        <ele>237.1</ele>
        <time>2019-05-27T12:21:45Z</time>
      </trkpt>
      <trkpt lat="43.87967" lon="5.21276">
        <ele>240.47</ele>
        <time>2019-05-27T12:22:03Z</time>
      </trkpt>
      <trkpt lat="43.87977" lon="5.21256">
        <ele>242.39</ele>
        <time>2019-05-27T12:22:21Z</time>
      </trkpt>
      <trkpt lat="43.8798" lon="5.21254">
        <ele>242.87</ele>
        <time>2019-05-27T12:22:24Z</time>
      </trkpt>
      <trkpt lat="43.87991" lon="5.21248">
        <ele>243.83</ele>
        <time>2019-05-27T12:22:32Z</time>
      </trkpt>
      <trkpt lat="43.88004" lon="5.21236">
        <ele>246.23</ele>
        <time>2019-05-27T12:22:48Z</time>
      </trkpt>
      <trkpt lat="43.88001" lon="5.21234">
        <ele>246.23</ele>
        <time>2019-05-27T12:23:11Z</time>
      </trkpt>
      <trkpt lat="43.87991" lon="5.2123">
        <ele>246.72</ele>
        <time>2019-05-27T12:23:22Z</time>
      </trkpt>
      <trkpt lat="43.8797" lon="5.21215">
        <ele>246.72</ele>
        <time>2019-05-27T12:23:41Z</time>
      </trkpt>
      <trkpt lat="43.87968" lon="5.21214">
        <ele>246.72</ele>
        <time>2019-05-27T12:23:42Z</time>
      </trkpt>
      <trkpt lat="43.87947" lon="5.21199">
        <ele>247.2</ele>
        <time>2019-05-27T12:24:00Z</time>
      </trkpt>
      <trkpt lat="43.87932" lon="5.21189">
        <ele>247.68</ele>
        <time>2019-05-27T12:24:14Z</time>
      </trkpt>
      <trkpt lat="43.87913" lon="5.21173">
        <ele>248.16</ele>
        <time>2019-05-27T12:24:30Z</time>
      </trkpt>
      <trkpt lat="43.87895" lon="5.2117">
        <ele>248.16</ele>
        <time>2019-05-27T12:24:46Z</time>
      </trkpt>
      <trkpt lat="43.87891" lon="5.21168">
        <ele>248.64</ele>
        <time>2019-05-27T12:24:50Z</time>
      </trkpt>
      <trkpt lat="43.87872" lon="5.21164">
        <ele>248.16</ele>
        <time>2019-05-27T12:25:07Z</time>
      </trkpt>
      <trkpt lat="43.87856" lon="5.21155">
        <ele>248.64</ele>
        <time>2019-05-27T12:25:20Z</time>
      </trkpt>
      <trkpt lat="43.87834" lon="5.21143">
        <ele>249.6</ele>
        <time>2019-05-27T12:25:40Z</time>
      </trkpt>
      <trkpt lat="43.87817" lon="5.21132">
        <ele>250.08</ele>
        <time>2019-05-27T12:25:58Z</time>
      </trkpt>
      <trkpt lat="43.87815" lon="5.21132">
        <ele>250.08</ele>
        <time>2019-05-27T12:26:00Z</time>
      </trkpt>
      <trkpt lat="43.87795" lon="5.21128">
        <ele>251.04</ele>
        <time>2019-05-27T12:26:15Z</time>
      </trkpt>
      <trkpt lat="43.87773" lon="5.21125">
        <ele>252</ele>
        <time>2019-05-27T12:26:31Z</time>
      </trkpt>
      <trkpt lat="43.87756" lon="5.21123">
        <ele>252.48</ele>
        <time>2019-05-27T12:26:46Z</time>
      </trkpt>
      <trkpt lat="43.8774" lon="5.21113">
        <ele>252.96</ele>
        <time>2019-05-27T12:27:03Z</time>
      </trkpt>
      <trkpt lat="43.87723" lon="5.21104">
        <ele>253.93</ele>
        <time>2019-05-27T12:27:19Z</time>
      </trkpt>
      <trkpt lat="43.87713" lon="5.21097">
        <ele>254.41</ele>
        <time>2019-05-27T12:27:32Z</time>
      </trkpt>
      <trkpt lat="43.87693" lon="5.21069">
        <ele>257.29</ele>
        <time>2019-05-27T12:27:55Z</time>
      </trkpt>
      <trkpt lat="43.87682" lon="5.21056">
        <ele>258.73</ele>
        <time>2019-05-27T12:28:10Z</time>
      </trkpt>
      <trkpt lat="43.87671" lon="5.21037">
        <ele>260.65</ele>
        <time>2019-05-27T12:28:28Z</time>
      </trkpt>
      <trkpt lat="43.87665" lon="5.21013">
        <ele>262.58</ele>
        <time>2019-05-27T12:28:45Z</time>
      </trkpt>
      <trkpt lat="43.87658" lon="5.20993">
        <ele>264.02</ele>
        <time>2019-05-27T12:29:00Z</time>
      </trkpt>
      <trkpt lat="43.87654" lon="5.20966">
        <ele>265.46</ele>
        <time>2019-05-27T12:29:18Z</time>
      </trkpt>
      <trkpt lat="43.87654" lon="5.20962">
        <ele>266.42</ele>
        <time>2019-05-27T12:29:21Z</time>
      </trkpt>
      <trkpt lat="43.87641" lon="5.20937">
        <ele>266.9</ele>
        <time>2019-05-27T12:29:39Z</time>
      </trkpt>
      <trkpt lat="43.87636" lon="5.2093">
        <ele>265.94</ele>
        <time>2019-05-27T12:29:57Z</time>
      </trkpt>
      <trkpt lat="43.87636" lon="5.20928">
        <ele>266.42</ele>
        <time>2019-05-27T12:30:46Z</time>
      </trkpt>
      <trkpt lat="43.87636" lon="5.20928">
        <ele>265.94</ele>
        <time>2019-05-27T12:31:31Z</time>
      </trkpt>
      <trkpt lat="43.87637" lon="5.20929">
        <ele>265.94</ele>
        <time>2019-05-27T12:32:03Z</time>
      </trkpt>
      <trkpt lat="43.87635" lon="5.2093">
        <ele>265.94</ele>
        <time>2019-05-27T12:32:27Z</time>
      </trkpt>
      <trkpt lat="43.87633" lon="5.20933">
        <ele>265.94</ele>
        <time>2019-05-27T12:32:54Z</time>
      </trkpt>
      <trkpt lat="43.8763" lon="5.20931">
        <ele>265.94</ele>
        <time>2019-05-27T12:33:07Z</time>
      </trkpt>
      <trkpt lat="43.8761" lon="5.20929">
        <ele>266.9</ele>
        <time>2019-05-27T12:33:24Z</time>
      </trkpt>
      <trkpt lat="43.8759" lon="5.20926">
        <ele>265.94</ele>
        <time>2019-05-27T12:33:40Z</time>
      </trkpt>
      <trkpt lat="43.87586" lon="5.20925">
        <ele>265.94</ele>
        <time>2019-05-27T12:33:43Z</time>
      </trkpt>
      <trkpt lat="43.87572" lon="5.20922">
        <ele>264.02</ele>
        <time>2019-05-27T12:33:54Z</time>
      </trkpt>
      <trkpt lat="43.87569" lon="5.20921">
        <ele>264.02</ele>
        <time>2019-05-27T12:33:56Z</time>
      </trkpt>
      <trkpt lat="43.87546" lon="5.20922">
        <ele>262.58</ele>
        <time>2019-05-27T12:34:15Z</time>
      </trkpt>
      <trkpt lat="43.87529" lon="5.20924">
        <ele>261.62</ele>
        <time>2019-05-27T12:34:30Z</time>
      </trkpt>
      <trkpt lat="43.87508" lon="5.20925">
        <ele>260.17</ele>
        <time>2019-05-27T12:34:45Z</time>
      </trkpt>
      <trkpt lat="43.87482" lon="5.20928">
        <ele>259.21</ele>
        <time>2019-05-27T12:35:02Z</time>
      </trkpt>
      <trkpt lat="43.8746" lon="5.20929">
        <ele>259.21</ele>
        <time>2019-05-27T12:35:19Z</time>
      </trkpt>
      <trkpt lat="43.87442" lon="5.20931">
        <ele>259.69</ele>
        <time>2019-05-27T12:35:34Z</time>
      </trkpt>
      <trkpt lat="43.87434" lon="5.2093">
        <ele>260.17</ele>
        <time>2019-05-27T12:35:40Z</time>
      </trkpt>
      <trkpt lat="43.87416" lon="5.20934">
        <ele>261.14</ele>
        <time>2019-05-27T12:35:57Z</time>
      </trkpt>
      <trkpt lat="43.87397" lon="5.20936">
        <ele>261.62</ele>
        <time>2019-05-27T12:36:15Z</time>
      </trkpt>
      <trkpt lat="43.87392" lon="5.20937">
        <ele>261.62</ele>
        <time>2019-05-27T12:36:19Z</time>
      </trkpt>
      <trkpt lat="43.87385" lon="5.20936">
        <ele>261.62</ele>
        <time>2019-05-27T12:36:24Z</time>
      </trkpt>
      <trkpt lat="43.87363" lon="5.20941">
        <ele>260.65</ele>
        <time>2019-05-27T12:36:44Z</time>
      </trkpt>
      <trkpt lat="43.87361" lon="5.20941">
        <ele>260.65</ele>
        <time>2019-05-27T12:36:46Z</time>
      </trkpt>
      <trkpt lat="43.87342" lon="5.20944">
        <ele>260.17</ele>
        <time>2019-05-27T12:37:02Z</time>
      </trkpt>
      <trkpt lat="43.87322" lon="5.20947">
        <ele>259.69</ele>
        <time>2019-05-27T12:37:19Z</time>
      </trkpt>
      <trkpt lat="43.87302" lon="5.20949">
        <ele>259.21</ele>
        <time>2019-05-27T12:37:34Z</time>
      </trkpt>
      <trkpt lat="43.87278" lon="5.20953">
        <ele>258.73</ele>
        <time>2019-05-27T12:37:53Z</time>
      </trkpt>
      <trkpt lat="43.87257" lon="5.20954">
        <ele>257.77</ele>
        <time>2019-05-27T12:38:11Z</time>
      </trkpt>
      <trkpt lat="43.87234" lon="5.20951">
        <ele>256.33</ele>
        <time>2019-05-27T12:38:29Z</time>
      </trkpt>
      <trkpt lat="43.87212" lon="5.20954">
        <ele>255.37</ele>
        <time>2019-05-27T12:38:46Z</time>
      </trkpt>
      <trkpt lat="43.87194" lon="5.2096">
        <ele>254.41</ele>
        <time>2019-05-27T12:39:02Z</time>
      </trkpt>
      <trkpt lat="43.87166" lon="5.20965">
        <ele>253.93</ele>
        <time>2019-05-27T12:39:22Z</time>
      </trkpt>
      <trkpt lat="43.87149" lon="5.20967">
        <ele>253.93</ele>
        <time>2019-05-27T12:39:37Z</time>
      </trkpt>
      <trkpt lat="43.87149" lon="5.20969">
        <ele>252.96</ele>
        <time>2019-05-27T12:39:59Z</time>
      </trkpt>
      <trkpt lat="43.87151" lon="5.20972">
        <ele>253.44</ele>
        <time>2019-05-27T12:40:29Z</time>
      </trkpt>
      <trkpt lat="43.87152" lon="5.20969">
        <ele>253.44</ele>
        <time>2019-05-27T12:40:59Z</time>
      </trkpt>
      <trkpt lat="43.87152" lon="5.20972">
        <ele>253.44</ele>
        <time>2019-05-27T12:41:31Z</time>
      </trkpt>
      <trkpt lat="43.87153" lon="5.20972">
        <ele>253.44</ele>
        <time>2019-05-27T12:41:57Z</time>
      </trkpt>
      <trkpt lat="43.8715" lon="5.20973">
        <ele>253.44</ele>
        <time>2019-05-27T12:42:28Z</time>
      </trkpt>
      <trkpt lat="43.87138" lon="5.20972">
        <ele>252.96</ele>
        <time>2019-05-27T12:42:49Z</time>
      </trkpt>
      <trkpt lat="43.87123" lon="5.20974">
        <ele>252</ele>
        <time>2019-05-27T12:43:02Z</time>
      </trkpt>
      <trkpt lat="43.87103" lon="5.20978">
        <ele>251.52</ele>
        <time>2019-05-27T12:43:18Z</time>
      </trkpt>
      <trkpt lat="43.87083" lon="5.20983">
        <ele>250.56</ele>
        <time>2019-05-27T12:43:35Z</time>
      </trkpt>
      <trkpt lat="43.87065" lon="5.20985">
        <ele>250.08</ele>
        <time>2019-05-27T12:43:48Z</time>
      </trkpt>
      <trkpt lat="43.87049" lon="5.20986">
        <ele>249.6</ele>
        <time>2019-05-27T12:44:03Z</time>
      </trkpt>
      <trkpt lat="43.87026" lon="5.2098">
        <ele>248.16</ele>
        <time>2019-05-27T12:44:23Z</time>
      </trkpt>
      <trkpt lat="43.87005" lon="5.20977">
        <ele>246.72</ele>
        <time>2019-05-27T12:44:38Z</time>
      </trkpt>
      <trkpt lat="43.86994" lon="5.20974">
        <ele>246.23</ele>
        <time>2019-05-27T12:44:46Z</time>
      </trkpt>
      <trkpt lat="43.86986" lon="5.20975">
        <ele>245.75</ele>
        <time>2019-05-27T12:44:50Z</time>
      </trkpt>
      <trkpt lat="43.86979" lon="5.20974">
        <ele>244.79</ele>
        <time>2019-05-27T12:44:54Z</time>
      </trkpt>
      <trkpt lat="43.86965" lon="5.20977">
        <ele>244.79</ele>
        <time>2019-05-27T12:45:09Z</time>
      </trkpt>
      <trkpt lat="43.86951" lon="5.20981">
        <ele>243.83</ele>
        <time>2019-05-27T12:45:22Z</time>
      </trkpt>
      <trkpt lat="43.86929" lon="5.20995">
        <ele>243.35</ele>
        <time>2019-05-27T12:45:40Z</time>
      </trkpt>
      <trkpt lat="43.86911" lon="5.21005">
        <ele>243.83</ele>
        <time>2019-05-27T12:45:57Z</time>
      </trkpt>
      <trkpt lat="43.86888" lon="5.21018">
        <ele>243.35</ele>
        <time>2019-05-27T12:46:15Z</time>
      </trkpt>
      <trkpt lat="43.86866" lon="5.21028">
        <ele>242.39</ele>
        <time>2019-05-27T12:46:29Z</time>
      </trkpt>
      <trkpt lat="43.86848" lon="5.21041">
        <ele>241.91</ele>
        <time>2019-05-27T12:46:46Z</time>
      </trkpt>
      <trkpt lat="43.86833" lon="5.21056">
        <ele>241.91</ele>
        <time>2019-05-27T12:47:02Z</time>
      </trkpt>
      <trkpt lat="43.86817" lon="5.21075">
        <ele>241.91</ele>
        <time>2019-05-27T12:47:19Z</time>
      </trkpt>
      <trkpt lat="43.86794" lon="5.21102">
        <ele>241.91</ele>
        <time>2019-05-27T12:47:42Z</time>
      </trkpt>
      <trkpt lat="43.86777" lon="5.21127">
        <ele>241.43</ele>
        <time>2019-05-27T12:48:00Z</time>
      </trkpt>
      <trkpt lat="43.86774" lon="5.21129">
        <ele>241.91</ele>
        <time>2019-05-27T12:48:19Z</time>
      </trkpt>
      <trkpt lat="43.86774" lon="5.21129">
        <ele>241.43</ele>
        <time>2019-05-27T12:48:47Z</time>
      </trkpt>
      <trkpt lat="43.86773" lon="5.21131">
        <ele>240.95</ele>
        <time>2019-05-27T12:49:12Z</time>
      </trkpt>
      <trkpt lat="43.86763" lon="5.21132">
        <ele>240.95</ele>
        <time>2019-05-27T12:49:26Z</time>
      </trkpt>
      <trkpt lat="43.86745" lon="5.21125">
        <ele>239.51</ele>
        <time>2019-05-27T12:49:42Z</time>
      </trkpt>
      <trkpt lat="43.86738" lon="5.2112">
        <ele>238.06</ele>
        <time>2019-05-27T12:49:55Z</time>
      </trkpt>
      <trkpt lat="43.86729" lon="5.21113">
        <ele>238.06</ele>
        <time>2019-05-27T12:50:09Z</time>
      </trkpt>
      <trkpt lat="43.86711" lon="5.21102">
        <ele>236.62</ele>
        <time>2019-05-27T12:50:24Z</time>
      </trkpt>
      <trkpt lat="43.86692" lon="5.21094">
        <ele>234.7</ele>
        <time>2019-05-27T12:50:41Z</time>
      </trkpt>
      <trkpt lat="43.86673" lon="5.21082">
        <ele>233.26</ele>
        <time>2019-05-27T12:50:55Z</time>
      </trkpt>
      <trkpt lat="43.86656" lon="5.21069">
        <ele>231.81</ele>
        <time>2019-05-27T12:51:09Z</time>
      </trkpt>
      <trkpt lat="43.86635" lon="5.21055">
        <ele>229.89</ele>
        <time>2019-05-27T12:51:28Z</time>
      </trkpt>
      <trkpt lat="43.86617" lon="5.21044">
        <ele>228.93</ele>
        <time>2019-05-27T12:51:44Z</time>
      </trkpt>
      <trkpt lat="43.86614" lon="5.21042">
        <ele>228.45</ele>
        <time>2019-05-27T12:51:47Z</time>
      </trkpt>
      <trkpt lat="43.86597" lon="5.21033">
        <ele>227.01</ele>
        <time>2019-05-27T12:52:02Z</time>
      </trkpt>
      <trkpt lat="43.86592" lon="5.21029">
        <ele>226.53</ele>
        <time>2019-05-27T12:52:06Z</time>
      </trkpt>
      <trkpt lat="43.86571" lon="5.21015">
        <ele>226.53</ele>
        <time>2019-05-27T12:52:23Z</time>
      </trkpt>
      <trkpt lat="43.8657" lon="5.21014">
        <ele>226.53</ele>
        <time>2019-05-27T12:52:24Z</time>
      </trkpt>
      <trkpt lat="43.86568" lon="5.21012">
        <ele>226.53</ele>
        <time>2019-05-27T12:52:26Z</time>
      </trkpt>
      <trkpt lat="43.8655" lon="5.21002">
        <ele>225.57</ele>
        <time>2019-05-27T12:52:41Z</time>
      </trkpt>
      <trkpt lat="43.86532" lon="5.20993">
        <ele>224.61</ele>
        <time>2019-05-27T12:52:58Z</time>
      </trkpt>
      <trkpt lat="43.86521" lon="5.20985">
        <ele>224.12</ele>
        <time>2019-05-27T12:53:07Z</time>
      </trkpt>
      <trkpt lat="43.86499" lon="5.20972">
        <ele>222.68</ele>
        <time>2019-05-27T12:53:25Z</time>
      </trkpt>
      <trkpt lat="43.86486" lon="5.20949">
        <ele>222.2</ele>
        <time>2019-05-27T12:53:42Z</time>
      </trkpt>
      <trkpt lat="43.86476" lon="5.20921">
        <ele>220.76</ele>
        <time>2019-05-27T12:54:00Z</time>
      </trkpt>
      <trkpt lat="43.86468" lon="5.20895">
        <ele>218.84</ele>
        <time>2019-05-27T12:54:16Z</time>
      </trkpt>
      <trkpt lat="43.86457" lon="5.20874">
        <ele>218.36</ele>
        <time>2019-05-27T12:54:31Z</time>
      </trkpt>
      <trkpt lat="43.86449" lon="5.20859">
        <ele>217.88</ele>
        <time>2019-05-27T12:54:48Z</time>
      </trkpt>
      <trkpt lat="43.86448" lon="5.20861">
        <ele>217.88</ele>
        <time>2019-05-27T12:55:19Z</time>
      </trkpt>
      <trkpt lat="43.86436" lon="5.20864">
        <ele>217.88</ele>
        <time>2019-05-27T12:55:36Z</time>
      </trkpt>
      <trkpt lat="43.86425" lon="5.20872">
        <ele>217.4</ele>
        <time>2019-05-27T12:56:00Z</time>
      </trkpt>
      <trkpt lat="43.86403" lon="5.2089">
        <ele>218.36</ele>
        <time>2019-05-27T12:56:22Z</time>
      </trkpt>
      <trkpt lat="43.8638" lon="5.20889">
        <ele>218.36</ele>
        <time>2019-05-27T12:56:40Z</time>
      </trkpt>
      <trkpt lat="43.86364" lon="5.2087">
        <ele>216.91</ele>
        <time>2019-05-27T12:56:59Z</time>
      </trkpt>
      <trkpt lat="43.86349" lon="5.20854">
        <ele>216.43</ele>
        <time>2019-05-27T12:57:16Z</time>
      </trkpt>
      <trkpt lat="43.86331" lon="5.20836">
        <ele>214.99</ele>
        <time>2019-05-27T12:57:36Z</time>
      </trkpt>
      <trkpt lat="43.86314" lon="5.20819">
        <ele>214.03</ele>
        <time>2019-05-27T12:57:53Z</time>
      </trkpt>
      <trkpt lat="43.86299" lon="5.20801">
        <ele>213.55</ele>
        <time>2019-05-27T12:58:11Z</time>
      </trkpt>
      <trkpt lat="43.86285" lon="5.20784">
        <ele>212.59</ele>
        <time>2019-05-27T12:58:28Z</time>
      </trkpt>
      <trkpt lat="43.86283" lon="5.20783">
        <ele>212.59</ele>
        <time>2019-05-27T12:58:31Z</time>
      </trkpt>
      <trkpt lat="43.86277" lon="5.20794">
        <ele>212.59</ele>
        <time>2019-05-27T12:58:44Z</time>
      </trkpt>
      <trkpt lat="43.86263" lon="5.20815">
        <ele>212.59</ele>
        <time>2019-05-27T12:59:03Z</time>
      </trkpt>
      <trkpt lat="43.86257" lon="5.2081">
        <ele>211.63</ele>
        <time>2019-05-27T12:59:27Z</time>
      </trkpt>
      <trkpt lat="43.86241" lon="5.20812">
        <ele>211.63</ele>
        <time>2019-05-27T12:59:43Z</time>
      </trkpt>
      <trkpt lat="43.86229" lon="5.20807">
        <ele>211.63</ele>
        <time>2019-05-27T12:59:56Z</time>
      </trkpt>
      <trkpt lat="43.8621" lon="5.20805">
        <ele>210.67</ele>
        <time>2019-05-27T13:00:13Z</time>
      </trkpt>
      <trkpt lat="43.8619" lon="5.20802">
        <ele>210.19</ele>
        <time>2019-05-27T13:00:30Z</time>
      </trkpt>
      <trkpt lat="43.86169" lon="5.20793">
        <ele>210.67</ele>
        <time>2019-05-27T13:00:50Z</time>
      </trkpt>
      <trkpt lat="43.86154" lon="5.20779">
        <ele>209.7</ele>
        <time>2019-05-27T13:01:05Z</time>
      </trkpt>
      <trkpt lat="43.86145" lon="5.20759">
        <ele>208.74</ele>
        <time>2019-05-27T13:01:18Z</time>
      </trkpt>
      <trkpt lat="43.86131" lon="5.20744">
        <ele>206.82</ele>
        <time>2019-05-27T13:01:36Z</time>
      </trkpt>
      <trkpt lat="43.86119" lon="5.20731">
        <ele>206.82</ele>
        <time>2019-05-27T13:01:48Z</time>
      </trkpt>
      <trkpt lat="43.86109" lon="5.20701">
        <ele>206.82</ele>
        <time>2019-05-27T13:02:09Z</time>
      </trkpt>
      <trkpt lat="43.861" lon="5.20682">
        <ele>206.82</ele>
        <time>2019-05-27T13:02:22Z</time>
      </trkpt>
      <trkpt lat="43.8609" lon="5.20667">
        <ele>207.3</ele>
        <time>2019-05-27T13:02:34Z</time>
      </trkpt>
      <trkpt lat="43.86077" lon="5.20652">
        <ele>206.82</ele>
        <time>2019-05-27T13:02:50Z</time>
      </trkpt>
      <trkpt lat="43.8607" lon="5.20642">
        <ele>206.82</ele>
        <time>2019-05-27T13:02:57Z</time>
      </trkpt>
      <trkpt lat="43.86059" lon="5.20621">
        <ele>207.78</ele>
        <time>2019-05-27T13:03:18Z</time>
      </trkpt>
      <trkpt lat="43.86059" lon="5.20619">
        <ele>208.26</ele>
        <time>2019-05-27T13:03:42Z</time>
      </trkpt>
      <trkpt lat="43.86061" lon="5.20619">
        <ele>207.78</ele>
        <time>2019-05-27T13:04:07Z</time>
      </trkpt>
      <trkpt lat="43.86055" lon="5.20606">
        <ele>208.26</ele>
        <time>2019-05-27T13:04:34Z</time>
      </trkpt>
      <trkpt lat="43.86052" lon="5.20601">
        <ele>208.26</ele>
        <time>2019-05-27T13:04:37Z</time>
      </trkpt>
      <trkpt lat="43.8605" lon="5.20599">
        <ele>208.74</ele>
        <time>2019-05-27T13:04:39Z</time>
      </trkpt>
      <trkpt lat="43.86036" lon="5.20584">
        <ele>208.74</ele>
        <time>2019-05-27T13:04:54Z</time>
      </trkpt>
      <trkpt lat="43.86021" lon="5.2057">
        <ele>207.78</ele>
        <time>2019-05-27T13:05:10Z</time>
      </trkpt>
      <trkpt lat="43.86002" lon="5.20552">
        <ele>206.82</ele>
        <time>2019-05-27T13:05:29Z</time>
      </trkpt>
      <trkpt lat="43.85981" lon="5.20538">
        <ele>205.86</ele>
        <time>2019-05-27T13:05:46Z</time>
      </trkpt>
      <trkpt lat="43.8597" lon="5.20528">
        <ele>205.38</ele>
        <time>2019-05-27T13:06:00Z</time>
      </trkpt>
      <trkpt lat="43.8596" lon="5.20543">
        <ele>202.98</ele>
        <time>2019-05-27T13:06:17Z</time>
      </trkpt>
      <trkpt lat="43.85958" lon="5.20552">
        <ele>202.01</ele>
        <time>2019-05-27T13:06:22Z</time>
      </trkpt>
      <trkpt lat="43.85942" lon="5.20551">
        <ele>199.13</ele>
        <time>2019-05-27T13:06:37Z</time>
      </trkpt>
      <trkpt lat="43.85931" lon="5.20534">
        <ele>196.25</ele>
        <time>2019-05-27T13:06:50Z</time>
      </trkpt>
      <trkpt lat="43.85925" lon="5.20515">
        <ele>193.84</ele>
        <time>2019-05-27T13:07:03Z</time>
      </trkpt>
      <trkpt lat="43.85921" lon="5.20507">
        <ele>192.4</ele>
        <time>2019-05-27T13:07:11Z</time>
      </trkpt>
      <trkpt lat="43.85918" lon="5.20493">
        <ele>190.96</ele>
        <time>2019-05-27T13:07:21Z</time>
      </trkpt>
      <trkpt lat="43.85913" lon="5.20462">
        <ele>188.56</ele>
        <time>2019-05-27T13:07:41Z</time>
      </trkpt>
      <trkpt lat="43.8591" lon="5.20448">
        <ele>187.59</ele>
        <time>2019-05-27T13:07:50Z</time>
      </trkpt>
      <trkpt lat="43.8591" lon="5.20444">
        <ele>187.11</ele>
        <time>2019-05-27T13:07:52Z</time>
      </trkpt>
      <trkpt lat="43.85903" lon="5.20425">
        <ele>186.15</ele>
        <time>2019-05-27T13:08:05Z</time>
      </trkpt>
      <trkpt lat="43.85902" lon="5.20421">
        <ele>185.67</ele>
        <time>2019-05-27T13:08:09Z</time>
      </trkpt>
      <trkpt lat="43.85898" lon="5.20401">
        <ele>184.23</ele>
        <time>2019-05-27T13:08:26Z</time>
      </trkpt>
      <trkpt lat="43.85903" lon="5.20395">
        <ele>184.23</ele>
        <time>2019-05-27T13:08:53Z</time>
      </trkpt>
      <trkpt lat="43.85898" lon="5.2039">
        <ele>183.27</ele>
        <time>2019-05-27T13:09:08Z</time>
      </trkpt>
      <trkpt lat="43.85896" lon="5.20383">
        <ele>183.27</ele>
        <time>2019-05-27T13:09:16Z</time>
      </trkpt>
      <trkpt lat="43.85894" lon="5.20376">
        <ele>182.79</ele>
        <time>2019-05-27T13:09:21Z</time>
      </trkpt>
      <trkpt lat="43.85896" lon="5.20368">
        <ele>180.38</ele>
        <time>2019-05-27T13:09:36Z</time>
      </trkpt>
      <trkpt lat="43.85896" lon="5.20369">
        <ele>180.87</ele>
        <time>2019-05-27T13:09:44Z</time>
      </trkpt>
      <trkpt lat="43.85883" lon="5.20363">
        <ele>179.9</ele>
        <time>2019-05-27T13:10:00Z</time>
      </trkpt>
      <trkpt lat="43.85882" lon="5.20347">
        <ele>177.02</ele>
        <time>2019-05-27T13:10:18Z</time>
      </trkpt>
      <trkpt lat="43.85876" lon="5.20335">
        <ele>175.58</ele>
        <time>2019-05-27T13:10:27Z</time>
      </trkpt>
      <trkpt lat="43.85868" lon="5.20314">
        <ele>172.21</ele>
        <time>2019-05-27T13:10:45Z</time>
      </trkpt>
      <trkpt lat="43.85864" lon="5.20299">
        <ele>169.33</ele>
        <time>2019-05-27T13:11:02Z</time>
      </trkpt>
      <trkpt lat="43.85862" lon="5.20279">
        <ele>165.96</ele>
        <time>2019-05-27T13:11:16Z</time>
      </trkpt>
      <trkpt lat="43.85858" lon="5.20271">
        <ele>163.08</ele>
        <time>2019-05-27T13:11:31Z</time>
      </trkpt>
      <trkpt lat="43.85847" lon="5.20266">
        <ele>160.2</ele>
        <time>2019-05-27T13:11:47Z</time>
      </trkpt>
      <trkpt lat="43.85837" lon="5.20252">
        <ele>157.31</ele>
        <time>2019-05-27T13:12:03Z</time>
      </trkpt>
      <trkpt lat="43.85836" lon="5.20248">
        <ele>156.83</ele>
        <time>2019-05-27T13:12:06Z</time>
      </trkpt>
    </trkseg>
  </trk>
</gpx>